<?xml version="1.0" encoding="UTF-8" standalone="no" ?>
<gpx xmlns="http://www.topografix.com/GPX/1/1" xmlns:xsi="http://www.w3.org/2001/XMLSchema-instance" xsi:schemaLocation="http://www.topografix.com/GPX/1/1 http://www.topografix.com/GPX/1/1/gpx.xsd" version="1.1" creator="VisuGPX - https://www.visugpx.com">
  <metadata>
    <name>pas de sombardou</name>
  </metadata>
  <trk>
    <name><![CDATA[pas de sombardou]]></name>
    <trkseg>
      <trkpt lat="44.74585" lon="5.50436">
        <ele>759</ele>
        <time>2020-07-12T17:41:41+02:00</time>
      </trkpt>
      <trkpt lat="44.74578" lon="5.50406">
        <ele>752</ele>
        <time>2020-07-12T17:41:46+02:00</time>
      </trkpt>
      <trkpt lat="44.74577" lon="5.50389">
        <ele>750</ele>
        <time>2020-07-12T17:41:51+02:00</time>
      </trkpt>
      <trkpt lat="44.74581" lon="5.50365">
        <ele>750</ele>
        <time>2020-07-12T17:41:56+02:00</time>
      </trkpt>
      <trkpt lat="44.74582" lon="5.50361">
        <ele>750</ele>
        <time>2020-07-12T17:42:01+02:00</time>
      </trkpt>
      <trkpt lat="44.74587" lon="5.50344">
        <ele>754</ele>
        <time>2020-07-12T17:42:06+02:00</time>
      </trkpt>
      <trkpt lat="44.74598" lon="5.50333">
        <ele>756</ele>
        <time>2020-07-12T17:42:11+02:00</time>
      </trkpt>
      <trkpt lat="44.74606" lon="5.50329">
        <ele>756</ele>
        <time>2020-07-12T17:42:16+02:00</time>
      </trkpt>
      <trkpt lat="44.74615" lon="5.50324">
        <ele>757</ele>
        <time>2020-07-12T17:42:21+02:00</time>
      </trkpt>
      <trkpt lat="44.74618" lon="5.50319">
        <ele>758</ele>
        <time>2020-07-12T17:42:26+02:00</time>
      </trkpt>
      <trkpt lat="44.74617" lon="5.50302">
        <ele>761</ele>
        <time>2020-07-12T17:42:31+02:00</time>
      </trkpt>
      <trkpt lat="44.74605" lon="5.50297">
        <ele>763</ele>
        <time>2020-07-12T17:42:36+02:00</time>
      </trkpt>
      <trkpt lat="44.74602" lon="5.50294">
        <ele>765</ele>
        <time>2020-07-12T17:42:41+02:00</time>
      </trkpt>
      <trkpt lat="44.74593" lon="5.50289">
        <ele>769</ele>
        <time>2020-07-12T17:42:46+02:00</time>
      </trkpt>
      <trkpt lat="44.74575" lon="5.50268">
        <ele>781</ele>
        <time>2020-07-12T17:42:51+02:00</time>
      </trkpt>
      <trkpt lat="44.74558" lon="5.50264">
        <ele>787</ele>
        <time>2020-07-12T17:42:56+02:00</time>
      </trkpt>
      <trkpt lat="44.74568" lon="5.50238">
        <ele>789</ele>
        <time>2020-07-12T17:43:01+02:00</time>
      </trkpt>
      <trkpt lat="44.74563" lon="5.50124">
        <ele>811</ele>
        <time>2020-07-12T17:43:06+02:00</time>
      </trkpt>
      <trkpt lat="44.74569" lon="5.50096">
        <ele>813</ele>
        <time>2020-07-12T17:43:11+02:00</time>
      </trkpt>
      <trkpt lat="44.74574" lon="5.50072">
        <ele>815</ele>
        <time>2020-07-12T17:43:16+02:00</time>
      </trkpt>
      <trkpt lat="44.74578" lon="5.50051">
        <ele>817</ele>
        <time>2020-07-12T17:43:21+02:00</time>
      </trkpt>
      <trkpt lat="44.74581" lon="5.50035">
        <ele>818</ele>
        <time>2020-07-12T17:43:26+02:00</time>
      </trkpt>
      <trkpt lat="44.74584" lon="5.50016">
        <ele>819</ele>
        <time>2020-07-12T17:43:31+02:00</time>
      </trkpt>
      <trkpt lat="44.74585" lon="5.49997">
        <ele>820</ele>
        <time>2020-07-12T17:43:36+02:00</time>
      </trkpt>
      <trkpt lat="44.74592" lon="5.49981">
        <ele>816</ele>
        <time>2020-07-12T17:43:41+02:00</time>
      </trkpt>
      <trkpt lat="44.74593" lon="5.49974">
        <ele>816</ele>
        <time>2020-07-12T17:43:46+02:00</time>
      </trkpt>
      <trkpt lat="44.74596" lon="5.49949">
        <ele>819</ele>
        <time>2020-07-12T17:43:51+02:00</time>
      </trkpt>
      <trkpt lat="44.74608" lon="5.49907">
        <ele>822</ele>
        <time>2020-07-12T17:43:56+02:00</time>
      </trkpt>
      <trkpt lat="44.74615" lon="5.49893">
        <ele>822</ele>
        <time>2020-07-12T17:44:01+02:00</time>
      </trkpt>
      <trkpt lat="44.74618" lon="5.49884">
        <ele>822</ele>
        <time>2020-07-12T17:44:06+02:00</time>
      </trkpt>
      <trkpt lat="44.74623" lon="5.49868">
        <ele>825</ele>
        <time>2020-07-12T17:44:11+02:00</time>
      </trkpt>
      <trkpt lat="44.74625" lon="5.49859">
        <ele>828</ele>
        <time>2020-07-12T17:44:16+02:00</time>
      </trkpt>
      <trkpt lat="44.74623" lon="5.4984">
        <ele>836</ele>
        <time>2020-07-12T17:44:21+02:00</time>
      </trkpt>
      <trkpt lat="44.74624" lon="5.49819">
        <ele>844</ele>
        <time>2020-07-12T17:44:26+02:00</time>
      </trkpt>
      <trkpt lat="44.74631" lon="5.49812">
        <ele>844</ele>
        <time>2020-07-12T17:44:31+02:00</time>
      </trkpt>
      <trkpt lat="44.7464" lon="5.4981">
        <ele>841</ele>
        <time>2020-07-12T17:44:36+02:00</time>
      </trkpt>
      <trkpt lat="44.74648" lon="5.49805">
        <ele>838</ele>
        <time>2020-07-12T17:44:41+02:00</time>
      </trkpt>
      <trkpt lat="44.74652" lon="5.49782">
        <ele>844</ele>
        <time>2020-07-12T17:44:46+02:00</time>
      </trkpt>
      <trkpt lat="44.74653" lon="5.49762">
        <ele>850</ele>
        <time>2020-07-12T17:44:51+02:00</time>
      </trkpt>
      <trkpt lat="44.74654" lon="5.49743">
        <ele>855</ele>
        <time>2020-07-12T17:44:56+02:00</time>
      </trkpt>
      <trkpt lat="44.74657" lon="5.49721">
        <ele>858</ele>
        <time>2020-07-12T17:45:01+02:00</time>
      </trkpt>
      <trkpt lat="44.74655" lon="5.49696">
        <ele>864</ele>
        <time>2020-07-12T17:45:06+02:00</time>
      </trkpt>
      <trkpt lat="44.74656" lon="5.49682">
        <ele>868</ele>
        <time>2020-07-12T17:45:11+02:00</time>
      </trkpt>
      <trkpt lat="44.74658" lon="5.49647">
        <ele>876</ele>
        <time>2020-07-12T17:45:16+02:00</time>
      </trkpt>
      <trkpt lat="44.74666" lon="5.49609">
        <ele>883</ele>
        <time>2020-07-12T17:45:21+02:00</time>
      </trkpt>
      <trkpt lat="44.7467" lon="5.49597">
        <ele>885</ele>
        <time>2020-07-12T17:45:26+02:00</time>
      </trkpt>
      <trkpt lat="44.74671" lon="5.49593">
        <ele>886</ele>
        <time>2020-07-12T17:45:31+02:00</time>
      </trkpt>
      <trkpt lat="44.74681" lon="5.49581">
        <ele>885</ele>
        <time>2020-07-12T17:45:36+02:00</time>
      </trkpt>
      <trkpt lat="44.74696" lon="5.4957">
        <ele>884</ele>
        <time>2020-07-12T17:45:41+02:00</time>
      </trkpt>
      <trkpt lat="44.74709" lon="5.49564">
        <ele>883</ele>
        <time>2020-07-12T17:45:46+02:00</time>
      </trkpt>
      <trkpt lat="44.74722" lon="5.49563">
        <ele>880</ele>
        <time>2020-07-12T17:45:51+02:00</time>
      </trkpt>
      <trkpt lat="44.74733" lon="5.49558">
        <ele>881</ele>
        <time>2020-07-12T17:45:56+02:00</time>
      </trkpt>
      <trkpt lat="44.74749" lon="5.49557">
        <ele>880</ele>
        <time>2020-07-12T17:46:01+02:00</time>
      </trkpt>
      <trkpt lat="44.7474" lon="5.49542">
        <ele>885</ele>
        <time>2020-07-12T17:46:06+02:00</time>
      </trkpt>
      <trkpt lat="44.74735" lon="5.49534">
        <ele>887</ele>
        <time>2020-07-12T17:46:11+02:00</time>
      </trkpt>
      <trkpt lat="44.74723" lon="5.49513">
        <ele>894</ele>
        <time>2020-07-12T17:46:16+02:00</time>
      </trkpt>
      <trkpt lat="44.74713" lon="5.49506">
        <ele>899</ele>
        <time>2020-07-12T17:46:21+02:00</time>
      </trkpt>
      <trkpt lat="44.74709" lon="5.4951">
        <ele>899</ele>
        <time>2020-07-12T17:46:26+02:00</time>
      </trkpt>
      <trkpt lat="44.74695" lon="5.49531">
        <ele>897</ele>
        <time>2020-07-12T17:46:31+02:00</time>
      </trkpt>
      <trkpt lat="44.74692" lon="5.49535">
        <ele>897</ele>
        <time>2020-07-12T17:46:36+02:00</time>
      </trkpt>
      <trkpt lat="44.74685" lon="5.4954">
        <ele>898</ele>
        <time>2020-07-12T17:46:41+02:00</time>
      </trkpt>
      <trkpt lat="44.74678" lon="5.49543">
        <ele>900</ele>
        <time>2020-07-12T17:46:46+02:00</time>
      </trkpt>
      <trkpt lat="44.74666" lon="5.49548">
        <ele>904</ele>
        <time>2020-07-12T17:46:51+02:00</time>
      </trkpt>
      <trkpt lat="44.7465" lon="5.49551">
        <ele>910</ele>
        <time>2020-07-12T17:46:56+02:00</time>
      </trkpt>
      <trkpt lat="44.74644" lon="5.49552">
        <ele>912</ele>
        <time>2020-07-12T17:47:01+02:00</time>
      </trkpt>
      <trkpt lat="44.74628" lon="5.49558">
        <ele>919</ele>
        <time>2020-07-12T17:47:06+02:00</time>
      </trkpt>
      <trkpt lat="44.74623" lon="5.4956">
        <ele>921</ele>
        <time>2020-07-12T17:47:11+02:00</time>
      </trkpt>
      <trkpt lat="44.74613" lon="5.4957">
        <ele>923</ele>
        <time>2020-07-12T17:47:16+02:00</time>
      </trkpt>
      <trkpt lat="44.74605" lon="5.49583">
        <ele>923</ele>
        <time>2020-07-12T17:47:21+02:00</time>
      </trkpt>
      <trkpt lat="44.74595" lon="5.49592">
        <ele>925</ele>
        <time>2020-07-12T17:47:26+02:00</time>
      </trkpt>
      <trkpt lat="44.74586" lon="5.4961">
        <ele>926</ele>
        <time>2020-07-12T17:47:31+02:00</time>
      </trkpt>
      <trkpt lat="44.74583" lon="5.49619">
        <ele>926</ele>
        <time>2020-07-12T17:47:36+02:00</time>
      </trkpt>
      <trkpt lat="44.74581" lon="5.49619">
        <ele>926</ele>
        <time>2020-07-12T17:47:41+02:00</time>
      </trkpt>
      <trkpt lat="44.74569" lon="5.4963">
        <ele>930</ele>
        <time>2020-07-12T17:47:46+02:00</time>
      </trkpt>
      <trkpt lat="44.74566" lon="5.49639">
        <ele>929</ele>
        <time>2020-07-12T17:47:51+02:00</time>
      </trkpt>
      <trkpt lat="44.74559" lon="5.49648">
        <ele>929</ele>
        <time>2020-07-12T17:47:56+02:00</time>
      </trkpt>
      <trkpt lat="44.74548" lon="5.49662">
        <ele>932</ele>
        <time>2020-07-12T17:48:01+02:00</time>
      </trkpt>
      <trkpt lat="44.74542" lon="5.49673">
        <ele>932</ele>
        <time>2020-07-12T17:48:06+02:00</time>
      </trkpt>
      <trkpt lat="44.7453" lon="5.49684">
        <ele>934</ele>
        <time>2020-07-12T17:48:11+02:00</time>
      </trkpt>
      <trkpt lat="44.74522" lon="5.49695">
        <ele>934</ele>
        <time>2020-07-12T17:48:16+02:00</time>
      </trkpt>
      <trkpt lat="44.74514" lon="5.49706">
        <ele>934</ele>
        <time>2020-07-12T17:48:21+02:00</time>
      </trkpt>
      <trkpt lat="44.74505" lon="5.49713">
        <ele>936</ele>
        <time>2020-07-12T17:48:26+02:00</time>
      </trkpt>
      <trkpt lat="44.74498" lon="5.4972">
        <ele>937</ele>
        <time>2020-07-12T17:48:31+02:00</time>
      </trkpt>
      <trkpt lat="44.74492" lon="5.49726">
        <ele>938</ele>
        <time>2020-07-12T17:48:36+02:00</time>
      </trkpt>
      <trkpt lat="44.74483" lon="5.49735">
        <ele>940</ele>
        <time>2020-07-12T17:48:41+02:00</time>
      </trkpt>
      <trkpt lat="44.74472" lon="5.49746">
        <ele>942</ele>
        <time>2020-07-12T17:48:46+02:00</time>
      </trkpt>
      <trkpt lat="44.74465" lon="5.49748">
        <ele>946</ele>
        <time>2020-07-12T17:48:51+02:00</time>
      </trkpt>
      <trkpt lat="44.74457" lon="5.49757">
        <ele>948</ele>
        <time>2020-07-12T17:48:56+02:00</time>
      </trkpt>
      <trkpt lat="44.74451" lon="5.49765">
        <ele>950</ele>
        <time>2020-07-12T17:49:01+02:00</time>
      </trkpt>
      <trkpt lat="44.74446" lon="5.49772">
        <ele>951</ele>
        <time>2020-07-12T17:49:06+02:00</time>
      </trkpt>
      <trkpt lat="44.74442" lon="5.49778">
        <ele>952</ele>
        <time>2020-07-12T17:49:11+02:00</time>
      </trkpt>
      <trkpt lat="44.74432" lon="5.49787">
        <ele>956</ele>
        <time>2020-07-12T17:49:16+02:00</time>
      </trkpt>
      <trkpt lat="44.74425" lon="5.49797">
        <ele>958</ele>
        <time>2020-07-12T17:49:21+02:00</time>
      </trkpt>
      <trkpt lat="44.74417" lon="5.49808">
        <ele>960</ele>
        <time>2020-07-12T17:49:26+02:00</time>
      </trkpt>
      <trkpt lat="44.74412" lon="5.4981">
        <ele>961</ele>
        <time>2020-07-12T17:49:31+02:00</time>
      </trkpt>
      <trkpt lat="44.744" lon="5.49819">
        <ele>962</ele>
        <time>2020-07-12T17:49:36+02:00</time>
      </trkpt>
      <trkpt lat="44.74389" lon="5.49819">
        <ele>966</ele>
        <time>2020-07-12T17:49:41+02:00</time>
      </trkpt>
      <trkpt lat="44.74384" lon="5.49819">
        <ele>967</ele>
        <time>2020-07-12T17:49:46+02:00</time>
      </trkpt>
      <trkpt lat="44.74373" lon="5.49812">
        <ele>971</ele>
        <time>2020-07-12T17:49:51+02:00</time>
      </trkpt>
      <trkpt lat="44.74366" lon="5.49802">
        <ele>977</ele>
        <time>2020-07-12T17:49:56+02:00</time>
      </trkpt>
      <trkpt lat="44.74359" lon="5.49794">
        <ele>982</ele>
        <time>2020-07-12T17:50:01+02:00</time>
      </trkpt>
      <trkpt lat="44.74349" lon="5.49786">
        <ele>987</ele>
        <time>2020-07-12T17:50:06+02:00</time>
      </trkpt>
      <trkpt lat="44.74342" lon="5.49784">
        <ele>988</ele>
        <time>2020-07-12T17:50:11+02:00</time>
      </trkpt>
      <trkpt lat="44.7433" lon="5.49784">
        <ele>989</ele>
        <time>2020-07-12T17:50:16+02:00</time>
      </trkpt>
      <trkpt lat="44.74319" lon="5.4979">
        <ele>991</ele>
        <time>2020-07-12T17:50:21+02:00</time>
      </trkpt>
      <trkpt lat="44.74306" lon="5.49829">
        <ele>992</ele>
        <time>2020-07-12T17:50:26+02:00</time>
      </trkpt>
      <trkpt lat="44.74305" lon="5.49845">
        <ele>991</ele>
        <time>2020-07-12T17:50:31+02:00</time>
      </trkpt>
      <trkpt lat="44.74292" lon="5.49904">
        <ele>992</ele>
        <time>2020-07-12T17:50:36+02:00</time>
      </trkpt>
      <trkpt lat="44.74283" lon="5.49921">
        <ele>996</ele>
        <time>2020-07-12T17:50:41+02:00</time>
      </trkpt>
      <trkpt lat="44.74277" lon="5.49927">
        <ele>999</ele>
        <time>2020-07-12T17:50:46+02:00</time>
      </trkpt>
      <trkpt lat="44.74266" lon="5.49936">
        <ele>999</ele>
        <time>2020-07-12T17:50:51+02:00</time>
      </trkpt>
      <trkpt lat="44.74257" lon="5.49944">
        <ele>998</ele>
        <time>2020-07-12T17:50:56+02:00</time>
      </trkpt>
      <trkpt lat="44.74244" lon="5.49952">
        <ele>999</ele>
        <time>2020-07-12T17:51:01+02:00</time>
      </trkpt>
      <trkpt lat="44.74233" lon="5.49958">
        <ele>1000</ele>
        <time>2020-07-12T17:51:06+02:00</time>
      </trkpt>
      <trkpt lat="44.74224" lon="5.49961">
        <ele>1001</ele>
        <time>2020-07-12T17:51:11+02:00</time>
      </trkpt>
      <trkpt lat="44.74216" lon="5.49965">
        <ele>1002</ele>
        <time>2020-07-12T17:51:16+02:00</time>
      </trkpt>
      <trkpt lat="44.74205" lon="5.49973">
        <ele>1003</ele>
        <time>2020-07-12T17:51:21+02:00</time>
      </trkpt>
      <trkpt lat="44.74201" lon="5.49977">
        <ele>1004</ele>
        <time>2020-07-12T17:51:26+02:00</time>
      </trkpt>
      <trkpt lat="44.74191" lon="5.4998">
        <ele>1006</ele>
        <time>2020-07-12T17:51:31+02:00</time>
      </trkpt>
      <trkpt lat="44.74182" lon="5.49984">
        <ele>1007</ele>
        <time>2020-07-12T17:51:36+02:00</time>
      </trkpt>
      <trkpt lat="44.74171" lon="5.49986">
        <ele>1009</ele>
        <time>2020-07-12T17:51:41+02:00</time>
      </trkpt>
      <trkpt lat="44.74163" lon="5.49986">
        <ele>1011</ele>
        <time>2020-07-12T17:51:46+02:00</time>
      </trkpt>
      <trkpt lat="44.74156" lon="5.49985">
        <ele>1011</ele>
        <time>2020-07-12T17:51:51+02:00</time>
      </trkpt>
      <trkpt lat="44.74147" lon="5.49985">
        <ele>1013</ele>
        <time>2020-07-12T17:51:56+02:00</time>
      </trkpt>
      <trkpt lat="44.74143" lon="5.49981">
        <ele>1015</ele>
        <time>2020-07-12T17:52:01+02:00</time>
      </trkpt>
      <trkpt lat="44.74133" lon="5.49977">
        <ele>1016</ele>
        <time>2020-07-12T17:52:06+02:00</time>
      </trkpt>
      <trkpt lat="44.74128" lon="5.49974">
        <ele>1016</ele>
        <time>2020-07-12T17:52:11+02:00</time>
      </trkpt>
      <trkpt lat="44.74121" lon="5.49972">
        <ele>1016</ele>
        <time>2020-07-12T17:52:16+02:00</time>
      </trkpt>
      <trkpt lat="44.74111" lon="5.49966">
        <ele>1017</ele>
        <time>2020-07-12T17:52:21+02:00</time>
      </trkpt>
      <trkpt lat="44.74106" lon="5.49962">
        <ele>1016</ele>
        <time>2020-07-12T17:52:26+02:00</time>
      </trkpt>
      <trkpt lat="44.74098" lon="5.49952">
        <ele>1018</ele>
        <time>2020-07-12T17:52:31+02:00</time>
      </trkpt>
      <trkpt lat="44.74087" lon="5.49939">
        <ele>1019</ele>
        <time>2020-07-12T17:52:36+02:00</time>
      </trkpt>
      <trkpt lat="44.74081" lon="5.49935">
        <ele>1019</ele>
        <time>2020-07-12T17:52:41+02:00</time>
      </trkpt>
      <trkpt lat="44.74073" lon="5.49929">
        <ele>1019</ele>
        <time>2020-07-12T17:52:46+02:00</time>
      </trkpt>
      <trkpt lat="44.74072" lon="5.49927">
        <ele>1019</ele>
        <time>2020-07-12T17:52:51+02:00</time>
      </trkpt>
      <trkpt lat="44.74043" lon="5.49921">
        <ele>1016</ele>
        <time>2020-07-12T17:52:56+02:00</time>
      </trkpt>
      <trkpt lat="44.74036" lon="5.49923">
        <ele>1014</ele>
        <time>2020-07-12T17:53:01+02:00</time>
      </trkpt>
      <trkpt lat="44.74023" lon="5.49925">
        <ele>1012</ele>
        <time>2020-07-12T17:53:06+02:00</time>
      </trkpt>
      <trkpt lat="44.74017" lon="5.49925">
        <ele>1012</ele>
        <time>2020-07-12T17:53:11+02:00</time>
      </trkpt>
      <trkpt lat="44.74009" lon="5.49921">
        <ele>1012</ele>
        <time>2020-07-12T17:53:16+02:00</time>
      </trkpt>
      <trkpt lat="44.74002" lon="5.49912">
        <ele>1015</ele>
        <time>2020-07-12T17:53:21+02:00</time>
      </trkpt>
      <trkpt lat="44.73993" lon="5.4991">
        <ele>1014</ele>
        <time>2020-07-12T17:53:26+02:00</time>
      </trkpt>
      <trkpt lat="44.73985" lon="5.49903">
        <ele>1014</ele>
        <time>2020-07-12T17:53:31+02:00</time>
      </trkpt>
      <trkpt lat="44.7398" lon="5.49896">
        <ele>1015</ele>
        <time>2020-07-12T17:53:36+02:00</time>
      </trkpt>
      <trkpt lat="44.73969" lon="5.49888">
        <ele>1015</ele>
        <time>2020-07-12T17:53:41+02:00</time>
      </trkpt>
      <trkpt lat="44.73963" lon="5.49883">
        <ele>1014</ele>
        <time>2020-07-12T17:53:46+02:00</time>
      </trkpt>
      <trkpt lat="44.73953" lon="5.49875">
        <ele>1015</ele>
        <time>2020-07-12T17:53:51+02:00</time>
      </trkpt>
      <trkpt lat="44.73945" lon="5.49866">
        <ele>1016</ele>
        <time>2020-07-12T17:53:56+02:00</time>
      </trkpt>
      <trkpt lat="44.73937" lon="5.49859">
        <ele>1016</ele>
        <time>2020-07-12T17:54:01+02:00</time>
      </trkpt>
      <trkpt lat="44.73931" lon="5.49853">
        <ele>1016</ele>
        <time>2020-07-12T17:54:06+02:00</time>
      </trkpt>
      <trkpt lat="44.73921" lon="5.49845">
        <ele>1017</ele>
        <time>2020-07-12T17:54:11+02:00</time>
      </trkpt>
      <trkpt lat="44.73911" lon="5.49838">
        <ele>1016</ele>
        <time>2020-07-12T17:54:16+02:00</time>
      </trkpt>
      <trkpt lat="44.739" lon="5.4983">
        <ele>1017</ele>
        <time>2020-07-12T17:54:21+02:00</time>
      </trkpt>
      <trkpt lat="44.73886" lon="5.49819">
        <ele>1017</ele>
        <time>2020-07-12T17:54:26+02:00</time>
      </trkpt>
      <trkpt lat="44.7388" lon="5.49815">
        <ele>1017</ele>
        <time>2020-07-12T17:54:31+02:00</time>
      </trkpt>
      <trkpt lat="44.73868" lon="5.49807">
        <ele>1018</ele>
        <time>2020-07-12T17:54:36+02:00</time>
      </trkpt>
      <trkpt lat="44.7386" lon="5.49796">
        <ele>1020</ele>
        <time>2020-07-12T17:54:41+02:00</time>
      </trkpt>
      <trkpt lat="44.73849" lon="5.49786">
        <ele>1022</ele>
        <time>2020-07-12T17:54:46+02:00</time>
      </trkpt>
      <trkpt lat="44.73841" lon="5.49782">
        <ele>1022</ele>
        <time>2020-07-12T17:54:51+02:00</time>
      </trkpt>
      <trkpt lat="44.73832" lon="5.49778">
        <ele>1022</ele>
        <time>2020-07-12T17:54:56+02:00</time>
      </trkpt>
      <trkpt lat="44.73819" lon="5.49774">
        <ele>1023</ele>
        <time>2020-07-12T17:55:01+02:00</time>
      </trkpt>
      <trkpt lat="44.73815" lon="5.49774">
        <ele>1023</ele>
        <time>2020-07-12T17:55:06+02:00</time>
      </trkpt>
      <trkpt lat="44.73804" lon="5.49774">
        <ele>1023</ele>
        <time>2020-07-12T17:55:11+02:00</time>
      </trkpt>
      <trkpt lat="44.73798" lon="5.49776">
        <ele>1024</ele>
        <time>2020-07-12T17:55:16+02:00</time>
      </trkpt>
      <trkpt lat="44.7379" lon="5.49776">
        <ele>1026</ele>
        <time>2020-07-12T17:55:21+02:00</time>
      </trkpt>
      <trkpt lat="44.73784" lon="5.49778">
        <ele>1027</ele>
        <time>2020-07-12T17:55:26+02:00</time>
      </trkpt>
      <trkpt lat="44.73774" lon="5.4978">
        <ele>1030</ele>
        <time>2020-07-12T17:55:31+02:00</time>
      </trkpt>
      <trkpt lat="44.7377" lon="5.49784">
        <ele>1030</ele>
        <time>2020-07-12T17:55:36+02:00</time>
      </trkpt>
      <trkpt lat="44.73762" lon="5.49787">
        <ele>1031</ele>
        <time>2020-07-12T17:55:41+02:00</time>
      </trkpt>
      <trkpt lat="44.73751" lon="5.49789">
        <ele>1034</ele>
        <time>2020-07-12T17:55:46+02:00</time>
      </trkpt>
      <trkpt lat="44.73747" lon="5.49789">
        <ele>1035</ele>
        <time>2020-07-12T17:55:51+02:00</time>
      </trkpt>
      <trkpt lat="44.73735" lon="5.49785">
        <ele>1037</ele>
        <time>2020-07-12T17:55:56+02:00</time>
      </trkpt>
      <trkpt lat="44.73726" lon="5.49777">
        <ele>1042</ele>
        <time>2020-07-12T17:56:01+02:00</time>
      </trkpt>
      <trkpt lat="44.73714" lon="5.49769">
        <ele>1045</ele>
        <time>2020-07-12T17:56:06+02:00</time>
      </trkpt>
      <trkpt lat="44.73707" lon="5.49763">
        <ele>1047</ele>
        <time>2020-07-12T17:56:11+02:00</time>
      </trkpt>
      <trkpt lat="44.73701" lon="5.49759">
        <ele>1049</ele>
        <time>2020-07-12T17:56:16+02:00</time>
      </trkpt>
      <trkpt lat="44.73695" lon="5.49758">
        <ele>1049</ele>
        <time>2020-07-12T17:56:21+02:00</time>
      </trkpt>
      <trkpt lat="44.73684" lon="5.49754">
        <ele>1052</ele>
        <time>2020-07-12T17:56:26+02:00</time>
      </trkpt>
      <trkpt lat="44.73672" lon="5.49742">
        <ele>1057</ele>
        <time>2020-07-12T17:56:31+02:00</time>
      </trkpt>
      <trkpt lat="44.73673" lon="5.4974">
        <ele>1058</ele>
        <time>2020-07-12T17:56:36+02:00</time>
      </trkpt>
      <trkpt lat="44.73682" lon="5.4973">
        <ele>1061</ele>
        <time>2020-07-12T17:56:41+02:00</time>
      </trkpt>
      <trkpt lat="44.73692" lon="5.4973">
        <ele>1061</ele>
        <time>2020-07-12T17:56:46+02:00</time>
      </trkpt>
      <trkpt lat="44.73699" lon="5.49734">
        <ele>1059</ele>
        <time>2020-07-12T17:56:51+02:00</time>
      </trkpt>
      <trkpt lat="44.73706" lon="5.4974">
        <ele>1057</ele>
        <time>2020-07-12T17:56:56+02:00</time>
      </trkpt>
      <trkpt lat="44.73718" lon="5.49746">
        <ele>1055</ele>
        <time>2020-07-12T17:57:01+02:00</time>
      </trkpt>
      <trkpt lat="44.73728" lon="5.49748">
        <ele>1053</ele>
        <time>2020-07-12T17:57:06+02:00</time>
      </trkpt>
      <trkpt lat="44.73737" lon="5.49748">
        <ele>1051</ele>
        <time>2020-07-12T17:57:11+02:00</time>
      </trkpt>
      <trkpt lat="44.73747" lon="5.4974">
        <ele>1051</ele>
        <time>2020-07-12T17:57:16+02:00</time>
      </trkpt>
      <trkpt lat="44.73753" lon="5.49726">
        <ele>1052</ele>
        <time>2020-07-12T17:57:21+02:00</time>
      </trkpt>
      <trkpt lat="44.73755" lon="5.49709">
        <ele>1057</ele>
        <time>2020-07-12T17:57:26+02:00</time>
      </trkpt>
      <trkpt lat="44.73756" lon="5.49688">
        <ele>1065</ele>
        <time>2020-07-12T17:57:31+02:00</time>
      </trkpt>
      <trkpt lat="44.73761" lon="5.49682">
        <ele>1064</ele>
        <time>2020-07-12T17:57:36+02:00</time>
      </trkpt>
      <trkpt lat="44.73768" lon="5.49682">
        <ele>1061</ele>
        <time>2020-07-12T17:57:41+02:00</time>
      </trkpt>
      <trkpt lat="44.7378" lon="5.49682">
        <ele>1057</ele>
        <time>2020-07-12T17:57:46+02:00</time>
      </trkpt>
      <trkpt lat="44.73786" lon="5.49682">
        <ele>1058</ele>
        <time>2020-07-12T17:57:51+02:00</time>
      </trkpt>
      <trkpt lat="44.73791" lon="5.49683">
        <ele>1059</ele>
        <time>2020-07-12T17:57:56+02:00</time>
      </trkpt>
      <trkpt lat="44.73801" lon="5.49687">
        <ele>1058</ele>
        <time>2020-07-12T17:58:01+02:00</time>
      </trkpt>
      <trkpt lat="44.7381" lon="5.49689">
        <ele>1058</ele>
        <time>2020-07-12T17:58:06+02:00</time>
      </trkpt>
      <trkpt lat="44.73821" lon="5.49689">
        <ele>1061</ele>
        <time>2020-07-12T17:58:11+02:00</time>
      </trkpt>
      <trkpt lat="44.73828" lon="5.49693">
        <ele>1060</ele>
        <time>2020-07-12T17:58:16+02:00</time>
      </trkpt>
      <trkpt lat="44.73836" lon="5.49695">
        <ele>1060</ele>
        <time>2020-07-12T17:58:21+02:00</time>
      </trkpt>
      <trkpt lat="44.73845" lon="5.49699">
        <ele>1059</ele>
        <time>2020-07-12T17:58:26+02:00</time>
      </trkpt>
      <trkpt lat="44.73853" lon="5.49702">
        <ele>1059</ele>
        <time>2020-07-12T17:58:31+02:00</time>
      </trkpt>
      <trkpt lat="44.7386" lon="5.49704">
        <ele>1059</ele>
        <time>2020-07-12T17:58:36+02:00</time>
      </trkpt>
      <trkpt lat="44.7387" lon="5.49706">
        <ele>1060</ele>
        <time>2020-07-12T17:58:41+02:00</time>
      </trkpt>
      <trkpt lat="44.73883" lon="5.4971">
        <ele>1061</ele>
        <time>2020-07-12T17:58:46+02:00</time>
      </trkpt>
      <trkpt lat="44.73894" lon="5.49714">
        <ele>1063</ele>
        <time>2020-07-12T17:58:51+02:00</time>
      </trkpt>
      <trkpt lat="44.73903" lon="5.49716">
        <ele>1065</ele>
        <time>2020-07-12T17:58:56+02:00</time>
      </trkpt>
      <trkpt lat="44.73911" lon="5.49716">
        <ele>1068</ele>
        <time>2020-07-12T17:59:01+02:00</time>
      </trkpt>
      <trkpt lat="44.73921" lon="5.49718">
        <ele>1070</ele>
        <time>2020-07-12T17:59:06+02:00</time>
      </trkpt>
      <trkpt lat="44.73934" lon="5.49722">
        <ele>1072</ele>
        <time>2020-07-12T17:59:11+02:00</time>
      </trkpt>
      <trkpt lat="44.73941" lon="5.49726">
        <ele>1073</ele>
        <time>2020-07-12T17:59:16+02:00</time>
      </trkpt>
      <trkpt lat="44.73952" lon="5.4973">
        <ele>1074</ele>
        <time>2020-07-12T17:59:21+02:00</time>
      </trkpt>
      <trkpt lat="44.7396" lon="5.49734">
        <ele>1075</ele>
        <time>2020-07-12T17:59:26+02:00</time>
      </trkpt>
      <trkpt lat="44.73968" lon="5.49736">
        <ele>1076</ele>
        <time>2020-07-12T17:59:31+02:00</time>
      </trkpt>
      <trkpt lat="44.7398" lon="5.49742">
        <ele>1077</ele>
        <time>2020-07-12T17:59:36+02:00</time>
      </trkpt>
      <trkpt lat="44.7399" lon="5.49748">
        <ele>1077</ele>
        <time>2020-07-12T17:59:41+02:00</time>
      </trkpt>
      <trkpt lat="44.74004" lon="5.49758">
        <ele>1075</ele>
        <time>2020-07-12T17:59:46+02:00</time>
      </trkpt>
      <trkpt lat="44.74016" lon="5.49764">
        <ele>1075</ele>
        <time>2020-07-12T17:59:51+02:00</time>
      </trkpt>
      <trkpt lat="44.74022" lon="5.49764">
        <ele>1075</ele>
        <time>2020-07-12T17:59:56+02:00</time>
      </trkpt>
      <trkpt lat="44.74033" lon="5.49766">
        <ele>1076</ele>
        <time>2020-07-12T18:00:01+02:00</time>
      </trkpt>
      <trkpt lat="44.74042" lon="5.49766">
        <ele>1077</ele>
        <time>2020-07-12T18:00:06+02:00</time>
      </trkpt>
      <trkpt lat="44.74053" lon="5.4977">
        <ele>1077</ele>
        <time>2020-07-12T18:00:11+02:00</time>
      </trkpt>
      <trkpt lat="44.74064" lon="5.49773">
        <ele>1077</ele>
        <time>2020-07-12T18:00:16+02:00</time>
      </trkpt>
      <trkpt lat="44.74075" lon="5.49773">
        <ele>1077</ele>
        <time>2020-07-12T18:00:21+02:00</time>
      </trkpt>
      <trkpt lat="44.74087" lon="5.49773">
        <ele>1077</ele>
        <time>2020-07-12T18:00:26+02:00</time>
      </trkpt>
      <trkpt lat="44.74103" lon="5.49773">
        <ele>1077</ele>
        <time>2020-07-12T18:00:31+02:00</time>
      </trkpt>
      <trkpt lat="44.74104" lon="5.49771">
        <ele>1077</ele>
        <time>2020-07-12T18:00:36+02:00</time>
      </trkpt>
      <trkpt lat="44.74114" lon="5.49765">
        <ele>1079</ele>
        <time>2020-07-12T18:00:41+02:00</time>
      </trkpt>
      <trkpt lat="44.74126" lon="5.49754">
        <ele>1080</ele>
        <time>2020-07-12T18:00:46+02:00</time>
      </trkpt>
      <trkpt lat="44.74134" lon="5.49746">
        <ele>1082</ele>
        <time>2020-07-12T18:00:51+02:00</time>
      </trkpt>
      <trkpt lat="44.74142" lon="5.49738">
        <ele>1082</ele>
        <time>2020-07-12T18:00:56+02:00</time>
      </trkpt>
      <trkpt lat="44.74148" lon="5.49727">
        <ele>1084</ele>
        <time>2020-07-12T18:01:01+02:00</time>
      </trkpt>
      <trkpt lat="44.74154" lon="5.49721">
        <ele>1083</ele>
        <time>2020-07-12T18:01:06+02:00</time>
      </trkpt>
      <trkpt lat="44.7416" lon="5.49711">
        <ele>1083</ele>
        <time>2020-07-12T18:01:11+02:00</time>
      </trkpt>
      <trkpt lat="44.74164" lon="5.49704">
        <ele>1083</ele>
        <time>2020-07-12T18:01:16+02:00</time>
      </trkpt>
      <trkpt lat="44.74166" lon="5.49684">
        <ele>1082</ele>
        <time>2020-07-12T18:01:21+02:00</time>
      </trkpt>
      <trkpt lat="44.74167" lon="5.49669">
        <ele>1081</ele>
        <time>2020-07-12T18:01:26+02:00</time>
      </trkpt>
      <trkpt lat="44.74166" lon="5.49643">
        <ele>1079</ele>
        <time>2020-07-12T18:01:31+02:00</time>
      </trkpt>
      <trkpt lat="44.74165" lon="5.4963">
        <ele>1079</ele>
        <time>2020-07-12T18:01:36+02:00</time>
      </trkpt>
      <trkpt lat="44.74164" lon="5.4962">
        <ele>1079</ele>
        <time>2020-07-12T18:01:41+02:00</time>
      </trkpt>
      <trkpt lat="44.74154" lon="5.49589">
        <ele>1087</ele>
        <time>2020-07-12T18:01:46+02:00</time>
      </trkpt>
      <trkpt lat="44.74157" lon="5.49569">
        <ele>1091</ele>
        <time>2020-07-12T18:01:51+02:00</time>
      </trkpt>
      <trkpt lat="44.7416" lon="5.49551">
        <ele>1095</ele>
        <time>2020-07-12T18:01:56+02:00</time>
      </trkpt>
      <trkpt lat="44.7416" lon="5.49541">
        <ele>1098</ele>
        <time>2020-07-12T18:02:01+02:00</time>
      </trkpt>
      <trkpt lat="44.74161" lon="5.49535">
        <ele>1099</ele>
        <time>2020-07-12T18:02:06+02:00</time>
      </trkpt>
      <trkpt lat="44.74163" lon="5.49521">
        <ele>1103</ele>
        <time>2020-07-12T18:02:11+02:00</time>
      </trkpt>
      <trkpt lat="44.74163" lon="5.49513">
        <ele>1105</ele>
        <time>2020-07-12T18:02:16+02:00</time>
      </trkpt>
      <trkpt lat="44.74167" lon="5.49505">
        <ele>1106</ele>
        <time>2020-07-12T18:02:21+02:00</time>
      </trkpt>
      <trkpt lat="44.74175" lon="5.49495">
        <ele>1107</ele>
        <time>2020-07-12T18:02:26+02:00</time>
      </trkpt>
      <trkpt lat="44.7418" lon="5.49485">
        <ele>1108</ele>
        <time>2020-07-12T18:02:31+02:00</time>
      </trkpt>
      <trkpt lat="44.74186" lon="5.49479">
        <ele>1107</ele>
        <time>2020-07-12T18:02:36+02:00</time>
      </trkpt>
      <trkpt lat="44.74187" lon="5.49477">
        <ele>1107</ele>
        <time>2020-07-12T18:02:41+02:00</time>
      </trkpt>
      <trkpt lat="44.744" lon="5.48988">
        <ele>1250</ele>
        <time>2020-07-12T18:02:46+02:00</time>
      </trkpt>
      <trkpt lat="44.74444" lon="5.48884">
        <ele>1283</ele>
        <time>2020-07-12T18:02:51+02:00</time>
      </trkpt>
      <trkpt lat="44.74463" lon="5.48857">
        <ele>1291</ele>
        <time>2020-07-12T18:02:56+02:00</time>
      </trkpt>
      <trkpt lat="44.7447" lon="5.48852">
        <ele>1291</ele>
        <time>2020-07-12T18:03:01+02:00</time>
      </trkpt>
      <trkpt lat="44.74481" lon="5.48845">
        <ele>1294</ele>
        <time>2020-07-12T18:03:06+02:00</time>
      </trkpt>
      <trkpt lat="44.74492" lon="5.48836">
        <ele>1299</ele>
        <time>2020-07-12T18:03:11+02:00</time>
      </trkpt>
      <trkpt lat="44.745" lon="5.48833">
        <ele>1300</ele>
        <time>2020-07-12T18:03:16+02:00</time>
      </trkpt>
      <trkpt lat="44.74506" lon="5.48829">
        <ele>1303</ele>
        <time>2020-07-12T18:03:21+02:00</time>
      </trkpt>
      <trkpt lat="44.74514" lon="5.4882">
        <ele>1308</ele>
        <time>2020-07-12T18:03:26+02:00</time>
      </trkpt>
      <trkpt lat="44.74526" lon="5.48817">
        <ele>1310</ele>
        <time>2020-07-12T18:03:31+02:00</time>
      </trkpt>
      <trkpt lat="44.74531" lon="5.48817">
        <ele>1311</ele>
        <time>2020-07-12T18:03:36+02:00</time>
      </trkpt>
      <trkpt lat="44.74537" lon="5.48817">
        <ele>1313</ele>
        <time>2020-07-12T18:03:41+02:00</time>
      </trkpt>
      <trkpt lat="44.74544" lon="5.48819">
        <ele>1314</ele>
        <time>2020-07-12T18:03:46+02:00</time>
      </trkpt>
      <trkpt lat="44.74555" lon="5.48824">
        <ele>1314</ele>
        <time>2020-07-12T18:03:51+02:00</time>
      </trkpt>
      <trkpt lat="44.74566" lon="5.48827">
        <ele>1316</ele>
        <time>2020-07-12T18:03:56+02:00</time>
      </trkpt>
      <trkpt lat="44.7458" lon="5.48833">
        <ele>1318</ele>
        <time>2020-07-12T18:04:01+02:00</time>
      </trkpt>
      <trkpt lat="44.74587" lon="5.48833">
        <ele>1320</ele>
        <time>2020-07-12T18:04:06+02:00</time>
      </trkpt>
      <trkpt lat="44.74599" lon="5.48833">
        <ele>1324</ele>
        <time>2020-07-12T18:04:11+02:00</time>
      </trkpt>
      <trkpt lat="44.74616" lon="5.48833">
        <ele>1330</ele>
        <time>2020-07-12T18:04:16+02:00</time>
      </trkpt>
      <trkpt lat="44.74624" lon="5.48833">
        <ele>1333</ele>
        <time>2020-07-12T18:04:21+02:00</time>
      </trkpt>
      <trkpt lat="44.7463" lon="5.48833">
        <ele>1334</ele>
        <time>2020-07-12T18:04:26+02:00</time>
      </trkpt>
      <trkpt lat="44.74643" lon="5.48833">
        <ele>1338</ele>
        <time>2020-07-12T18:04:31+02:00</time>
      </trkpt>
      <trkpt lat="44.74648" lon="5.48833">
        <ele>1338</ele>
        <time>2020-07-12T18:04:36+02:00</time>
      </trkpt>
      <trkpt lat="44.74667" lon="5.48809">
        <ele>1348</ele>
        <time>2020-07-12T18:04:41+02:00</time>
      </trkpt>
      <trkpt lat="44.74673" lon="5.48804">
        <ele>1346</ele>
        <time>2020-07-12T18:04:46+02:00</time>
      </trkpt>
      <trkpt lat="44.74679" lon="5.488">
        <ele>1343</ele>
        <time>2020-07-12T18:04:51+02:00</time>
      </trkpt>
      <trkpt lat="44.74685" lon="5.48795">
        <ele>1342</ele>
        <time>2020-07-12T18:04:56+02:00</time>
      </trkpt>
      <trkpt lat="44.74688" lon="5.4879">
        <ele>1343</ele>
        <time>2020-07-12T18:05:01+02:00</time>
      </trkpt>
      <trkpt lat="44.74695" lon="5.48783">
        <ele>1341</ele>
        <time>2020-07-12T18:05:06+02:00</time>
      </trkpt>
      <trkpt lat="44.74697" lon="5.48777">
        <ele>1342</ele>
        <time>2020-07-12T18:05:11+02:00</time>
      </trkpt>
      <trkpt lat="44.74699" lon="5.48772">
        <ele>1342</ele>
        <time>2020-07-12T18:05:16+02:00</time>
      </trkpt>
      <trkpt lat="44.74704" lon="5.48769">
        <ele>1341</ele>
        <time>2020-07-12T18:05:21+02:00</time>
      </trkpt>
      <trkpt lat="44.74708" lon="5.4876">
        <ele>1343</ele>
        <time>2020-07-12T18:05:26+02:00</time>
      </trkpt>
      <trkpt lat="44.74711" lon="5.48755">
        <ele>1344</ele>
        <time>2020-07-12T18:05:31+02:00</time>
      </trkpt>
      <trkpt lat="44.74712" lon="5.48745">
        <ele>1350</ele>
        <time>2020-07-12T18:05:36+02:00</time>
      </trkpt>
      <trkpt lat="44.74708" lon="5.48738">
        <ele>1356</ele>
        <time>2020-07-12T18:05:41+02:00</time>
      </trkpt>
      <trkpt lat="44.74705" lon="5.48737">
        <ele>1358</ele>
        <time>2020-07-12T18:05:46+02:00</time>
      </trkpt>
      <trkpt lat="44.74698" lon="5.48722">
        <ele>1369</ele>
        <time>2020-07-12T18:05:51+02:00</time>
      </trkpt>
      <trkpt lat="44.7468" lon="5.48719">
        <ele>1378</ele>
        <time>2020-07-12T18:05:56+02:00</time>
      </trkpt>
      <trkpt lat="44.74675" lon="5.48718">
        <ele>1381</ele>
        <time>2020-07-12T18:06:01+02:00</time>
      </trkpt>
      <trkpt lat="44.74663" lon="5.48713">
        <ele>1387</ele>
        <time>2020-07-12T18:06:06+02:00</time>
      </trkpt>
      <trkpt lat="44.74665" lon="5.48712">
        <ele>1388</ele>
        <time>2020-07-12T18:06:11+02:00</time>
      </trkpt>
      <trkpt lat="44.74666" lon="5.48712">
        <ele>1388</ele>
        <time>2020-07-12T18:06:16+02:00</time>
      </trkpt>
      <trkpt lat="44.7468" lon="5.48716">
        <ele>1380</ele>
        <time>2020-07-12T18:06:21+02:00</time>
      </trkpt>
      <trkpt lat="44.74695" lon="5.48721">
        <ele>1371</ele>
        <time>2020-07-12T18:06:26+02:00</time>
      </trkpt>
      <trkpt lat="44.74709" lon="5.48724">
        <ele>1364</ele>
        <time>2020-07-12T18:06:31+02:00</time>
      </trkpt>
      <trkpt lat="44.74722" lon="5.48724">
        <ele>1359</ele>
        <time>2020-07-12T18:06:36+02:00</time>
      </trkpt>
      <trkpt lat="44.74727" lon="5.48724">
        <ele>1360</ele>
        <time>2020-07-12T18:06:41+02:00</time>
      </trkpt>
      <trkpt lat="44.7474" lon="5.48723">
        <ele>1363</ele>
        <time>2020-07-12T18:06:46+02:00</time>
      </trkpt>
      <trkpt lat="44.74749" lon="5.48723">
        <ele>1365</ele>
        <time>2020-07-12T18:06:51+02:00</time>
      </trkpt>
      <trkpt lat="44.74757" lon="5.48723">
        <ele>1370</ele>
        <time>2020-07-12T18:06:56+02:00</time>
      </trkpt>
      <trkpt lat="44.74765" lon="5.48725">
        <ele>1373</ele>
        <time>2020-07-12T18:07:01+02:00</time>
      </trkpt>
      <trkpt lat="44.74774" lon="5.48733">
        <ele>1374</ele>
        <time>2020-07-12T18:07:06+02:00</time>
      </trkpt>
      <trkpt lat="44.74774" lon="5.48758">
        <ele>1359</ele>
        <time>2020-07-12T18:07:11+02:00</time>
      </trkpt>
      <trkpt lat="44.74776" lon="5.48773">
        <ele>1353</ele>
        <time>2020-07-12T18:07:16+02:00</time>
      </trkpt>
      <trkpt lat="44.74777" lon="5.48779">
        <ele>1351</ele>
        <time>2020-07-12T18:07:21+02:00</time>
      </trkpt>
      <trkpt lat="44.74784" lon="5.48783">
        <ele>1353</ele>
        <time>2020-07-12T18:07:26+02:00</time>
      </trkpt>
      <trkpt lat="44.74788" lon="5.48774">
        <ele>1361</ele>
        <time>2020-07-12T18:07:31+02:00</time>
      </trkpt>
      <trkpt lat="44.74788" lon="5.48763">
        <ele>1367</ele>
        <time>2020-07-12T18:07:36+02:00</time>
      </trkpt>
      <trkpt lat="44.74791" lon="5.48752">
        <ele>1373</ele>
        <time>2020-07-12T18:07:41+02:00</time>
      </trkpt>
      <trkpt lat="44.74793" lon="5.48752">
        <ele>1375</ele>
        <time>2020-07-12T18:07:46+02:00</time>
      </trkpt>
      <trkpt lat="44.74799" lon="5.48752">
        <ele>1378</ele>
        <time>2020-07-12T18:07:51+02:00</time>
      </trkpt>
      <trkpt lat="44.74844" lon="5.48756">
        <ele>1378</ele>
        <time>2020-07-12T18:07:56+02:00</time>
      </trkpt>
      <trkpt lat="44.74867" lon="5.48735">
        <ele>1370</ele>
        <time>2020-07-12T18:08:01+02:00</time>
      </trkpt>
      <trkpt lat="44.74872" lon="5.48723">
        <ele>1366</ele>
        <time>2020-07-12T18:08:06+02:00</time>
      </trkpt>
      <trkpt lat="44.74873" lon="5.48718">
        <ele>1366</ele>
        <time>2020-07-12T18:08:11+02:00</time>
      </trkpt>
      <trkpt lat="44.74877" lon="5.48705">
        <ele>1365</ele>
        <time>2020-07-12T18:08:16+02:00</time>
      </trkpt>
      <trkpt lat="44.74875" lon="5.48696">
        <ele>1372</ele>
        <time>2020-07-12T18:08:21+02:00</time>
      </trkpt>
      <trkpt lat="44.74876" lon="5.48697">
        <ele>1369</ele>
        <time>2020-07-12T18:08:26+02:00</time>
      </trkpt>
      <trkpt lat="44.74881" lon="5.48688">
        <ele>1363</ele>
        <time>2020-07-12T18:08:31+02:00</time>
      </trkpt>
      <trkpt lat="44.74877" lon="5.48678">
        <ele>1376</ele>
        <time>2020-07-12T18:08:36+02:00</time>
      </trkpt>
      <trkpt lat="44.74872" lon="5.48664">
        <ele>1391</ele>
        <time>2020-07-12T18:08:41+02:00</time>
      </trkpt>
      <trkpt lat="44.7487" lon="5.48654">
        <ele>1400</ele>
        <time>2020-07-12T18:08:46+02:00</time>
      </trkpt>
      <trkpt lat="44.74874" lon="5.48654">
        <ele>1392</ele>
        <time>2020-07-12T18:08:51+02:00</time>
      </trkpt>
      <trkpt lat="44.74883" lon="5.48654">
        <ele>1379</ele>
        <time>2020-07-12T18:08:56+02:00</time>
      </trkpt>
      <trkpt lat="44.74896" lon="5.48655">
        <ele>1368</ele>
        <time>2020-07-12T18:09:01+02:00</time>
      </trkpt>
      <trkpt lat="44.749" lon="5.48653">
        <ele>1368</ele>
        <time>2020-07-12T18:09:06+02:00</time>
      </trkpt>
      <trkpt lat="44.74896" lon="5.48643">
        <ele>1377</ele>
        <time>2020-07-12T18:09:11+02:00</time>
      </trkpt>
      <trkpt lat="44.74894" lon="5.4864">
        <ele>1380</ele>
        <time>2020-07-12T18:09:16+02:00</time>
      </trkpt>
      <trkpt lat="44.74887" lon="5.48626">
        <ele>1396</ele>
        <time>2020-07-12T18:09:21+02:00</time>
      </trkpt>
      <trkpt lat="44.74883" lon="5.48619">
        <ele>1405</ele>
        <time>2020-07-12T18:09:26+02:00</time>
      </trkpt>
      <trkpt lat="44.74876" lon="5.48613">
        <ele>1415</ele>
        <time>2020-07-12T18:09:31+02:00</time>
      </trkpt>
      <trkpt lat="44.74875" lon="5.4861">
        <ele>1417</ele>
        <time>2020-07-12T18:09:36+02:00</time>
      </trkpt>
      <trkpt lat="44.74857" lon="5.486">
        <ele>1433</ele>
        <time>2020-07-12T18:09:41+02:00</time>
      </trkpt>
      <trkpt lat="44.7487" lon="5.48598">
        <ele>1426</ele>
        <time>2020-07-12T18:09:46+02:00</time>
      </trkpt>
      <trkpt lat="44.74881" lon="5.48602">
        <ele>1417</ele>
        <time>2020-07-12T18:09:51+02:00</time>
      </trkpt>
      <trkpt lat="44.74894" lon="5.48606">
        <ele>1410</ele>
        <time>2020-07-12T18:09:56+02:00</time>
      </trkpt>
      <trkpt lat="44.74915" lon="5.4861">
        <ele>1410</ele>
        <time>2020-07-12T18:10:01+02:00</time>
      </trkpt>
      <trkpt lat="44.74933" lon="5.48628">
        <ele>1405</ele>
        <time>2020-07-12T18:10:06+02:00</time>
      </trkpt>
      <trkpt lat="44.74957" lon="5.48628">
        <ele>1405</ele>
        <time>2020-07-12T18:10:11+02:00</time>
      </trkpt>
      <trkpt lat="44.74969" lon="5.48628">
        <ele>1398</ele>
        <time>2020-07-12T18:10:16+02:00</time>
      </trkpt>
      <trkpt lat="44.74978" lon="5.48628">
        <ele>1373</ele>
        <time>2020-07-12T18:10:21+02:00</time>
      </trkpt>
      <trkpt lat="44.74993" lon="5.48629">
        <ele>1318</ele>
        <time>2020-07-12T18:10:26+02:00</time>
      </trkpt>
      <trkpt lat="44.7501" lon="5.48631">
        <ele>1275</ele>
        <time>2020-07-12T18:10:31+02:00</time>
      </trkpt>
      <trkpt lat="44.75006" lon="5.48631">
        <ele>1280</ele>
        <time>2020-07-12T18:10:36+02:00</time>
      </trkpt>
      <trkpt lat="44.75002" lon="5.48627">
        <ele>1291</ele>
        <time>2020-07-12T18:10:41+02:00</time>
      </trkpt>
      <trkpt lat="44.74984" lon="5.48615">
        <ele>1366</ele>
        <time>2020-07-12T18:10:46+02:00</time>
      </trkpt>
      <trkpt lat="44.74983" lon="5.48613">
        <ele>1372</ele>
        <time>2020-07-12T18:10:51+02:00</time>
      </trkpt>
      <trkpt lat="44.74971" lon="5.486">
        <ele>1417</ele>
        <time>2020-07-12T18:10:56+02:00</time>
      </trkpt>
      <trkpt lat="44.74971" lon="5.48591">
        <ele>1421</ele>
        <time>2020-07-12T18:11:01+02:00</time>
      </trkpt>
      <trkpt lat="44.74975" lon="5.48585">
        <ele>1417</ele>
        <time>2020-07-12T18:11:06+02:00</time>
      </trkpt>
      <trkpt lat="44.74977" lon="5.48575">
        <ele>1417</ele>
        <time>2020-07-12T18:11:11+02:00</time>
      </trkpt>
      <trkpt lat="44.7498" lon="5.48563">
        <ele>1414</ele>
        <time>2020-07-12T18:11:16+02:00</time>
      </trkpt>
      <trkpt lat="44.74983" lon="5.48553">
        <ele>1413</ele>
        <time>2020-07-12T18:11:21+02:00</time>
      </trkpt>
      <trkpt lat="44.74987" lon="5.48545">
        <ele>1408</ele>
        <time>2020-07-12T18:11:26+02:00</time>
      </trkpt>
      <trkpt lat="44.74987" lon="5.48539">
        <ele>1413</ele>
        <time>2020-07-12T18:11:31+02:00</time>
      </trkpt>
      <trkpt lat="44.74984" lon="5.48523">
        <ele>1426</ele>
        <time>2020-07-12T18:11:36+02:00</time>
      </trkpt>
      <trkpt lat="44.74975" lon="5.48506">
        <ele>1451</ele>
        <time>2020-07-12T18:11:41+02:00</time>
      </trkpt>
      <trkpt lat="44.74971" lon="5.48495">
        <ele>1460</ele>
        <time>2020-07-12T18:11:46+02:00</time>
      </trkpt>
      <trkpt lat="44.7497" lon="5.48489">
        <ele>1463</ele>
        <time>2020-07-12T18:11:51+02:00</time>
      </trkpt>
      <trkpt lat="44.74966" lon="5.48482">
        <ele>1466</ele>
        <time>2020-07-12T18:11:56+02:00</time>
      </trkpt>
      <trkpt lat="44.74957" lon="5.48473">
        <ele>1471</ele>
        <time>2020-07-12T18:12:01+02:00</time>
      </trkpt>
      <trkpt lat="44.74958" lon="5.48467">
        <ele>1473</ele>
        <time>2020-07-12T18:12:06+02:00</time>
      </trkpt>
      <trkpt lat="44.74961" lon="5.4846">
        <ele>1475</ele>
        <time>2020-07-12T18:12:11+02:00</time>
      </trkpt>
      <trkpt lat="44.74972" lon="5.48457">
        <ele>1473</ele>
        <time>2020-07-12T18:12:16+02:00</time>
      </trkpt>
      <trkpt lat="44.74979" lon="5.48454">
        <ele>1463</ele>
        <time>2020-07-12T18:12:21+02:00</time>
      </trkpt>
      <trkpt lat="44.74992" lon="5.48452">
        <ele>1441</ele>
        <time>2020-07-12T18:12:26+02:00</time>
      </trkpt>
      <trkpt lat="44.75002" lon="5.48448">
        <ele>1426</ele>
        <time>2020-07-12T18:12:31+02:00</time>
      </trkpt>
      <trkpt lat="44.75009" lon="5.48443">
        <ele>1418</ele>
        <time>2020-07-12T18:12:36+02:00</time>
      </trkpt>
      <trkpt lat="44.75019" lon="5.4843">
        <ele>1412</ele>
        <time>2020-07-12T18:12:41+02:00</time>
      </trkpt>
      <trkpt lat="44.75026" lon="5.48423">
        <ele>1407</ele>
        <time>2020-07-12T18:12:46+02:00</time>
      </trkpt>
      <trkpt lat="44.75034" lon="5.4841">
        <ele>1408</ele>
        <time>2020-07-12T18:12:51+02:00</time>
      </trkpt>
      <trkpt lat="44.75039" lon="5.48404">
        <ele>1407</ele>
        <time>2020-07-12T18:12:56+02:00</time>
      </trkpt>
      <trkpt lat="44.75044" lon="5.48387">
        <ele>1414</ele>
        <time>2020-07-12T18:13:01+02:00</time>
      </trkpt>
      <trkpt lat="44.75057" lon="5.48368">
        <ele>1411</ele>
        <time>2020-07-12T18:13:06+02:00</time>
      </trkpt>
      <trkpt lat="44.75064" lon="5.48346">
        <ele>1418</ele>
        <time>2020-07-12T18:13:11+02:00</time>
      </trkpt>
      <trkpt lat="44.75072" lon="5.48316">
        <ele>1430</ele>
        <time>2020-07-12T18:13:16+02:00</time>
      </trkpt>
      <trkpt lat="44.75073" lon="5.48279">
        <ele>1465</ele>
        <time>2020-07-12T18:13:21+02:00</time>
      </trkpt>
      <trkpt lat="44.75076" lon="5.48276">
        <ele>1465</ele>
        <time>2020-07-12T18:13:26+02:00</time>
      </trkpt>
      <trkpt lat="44.75078" lon="5.48262">
        <ele>1481</ele>
        <time>2020-07-12T18:13:31+02:00</time>
      </trkpt>
      <trkpt lat="44.75078" lon="5.48256">
        <ele>1488</ele>
        <time>2020-07-12T18:13:36+02:00</time>
      </trkpt>
      <trkpt lat="44.75078" lon="5.48247">
        <ele>1500</ele>
        <time>2020-07-12T18:13:41+02:00</time>
      </trkpt>
      <trkpt lat="44.75077" lon="5.48238">
        <ele>1516</ele>
        <time>2020-07-12T18:13:46+02:00</time>
      </trkpt>
      <trkpt lat="44.75076" lon="5.48231">
        <ele>1530</ele>
        <time>2020-07-12T18:13:51+02:00</time>
      </trkpt>
      <trkpt lat="44.75091" lon="5.48246">
        <ele>1493</ele>
        <time>2020-07-12T18:13:56+02:00</time>
      </trkpt>
      <trkpt lat="44.75099" lon="5.48249">
        <ele>1484</ele>
        <time>2020-07-12T18:14:01+02:00</time>
      </trkpt>
      <trkpt lat="44.75106" lon="5.48253">
        <ele>1476</ele>
        <time>2020-07-12T18:14:06+02:00</time>
      </trkpt>
      <trkpt lat="44.75109" lon="5.48253">
        <ele>1474</ele>
        <time>2020-07-12T18:14:11+02:00</time>
      </trkpt>
      <trkpt lat="44.75115" lon="5.48246">
        <ele>1481</ele>
        <time>2020-07-12T18:14:16+02:00</time>
      </trkpt>
      <trkpt lat="44.75121" lon="5.48243">
        <ele>1483</ele>
        <time>2020-07-12T18:14:21+02:00</time>
      </trkpt>
      <trkpt lat="44.75127" lon="5.4824">
        <ele>1485</ele>
        <time>2020-07-12T18:14:26+02:00</time>
      </trkpt>
      <trkpt lat="44.75129" lon="5.48236">
        <ele>1488</ele>
        <time>2020-07-12T18:14:31+02:00</time>
      </trkpt>
      <trkpt lat="44.75129" lon="5.48231">
        <ele>1495</ele>
        <time>2020-07-12T18:14:36+02:00</time>
      </trkpt>
      <trkpt lat="44.75126" lon="5.48262">
        <ele>1459</ele>
        <time>2020-07-12T18:14:41+02:00</time>
      </trkpt>
      <trkpt lat="44.75139" lon="5.48263">
        <ele>1453</ele>
        <time>2020-07-12T18:14:46+02:00</time>
      </trkpt>
      <trkpt lat="44.75143" lon="5.48262">
        <ele>1453</ele>
        <time>2020-07-12T18:14:51+02:00</time>
      </trkpt>
      <trkpt lat="44.75149" lon="5.48257">
        <ele>1454</ele>
        <time>2020-07-12T18:14:56+02:00</time>
      </trkpt>
      <trkpt lat="44.75151" lon="5.48248">
        <ele>1464</ele>
        <time>2020-07-12T18:15:01+02:00</time>
      </trkpt>
      <trkpt lat="44.75151" lon="5.4823">
        <ele>1482</ele>
        <time>2020-07-12T18:15:06+02:00</time>
      </trkpt>
      <trkpt lat="44.75151" lon="5.48222">
        <ele>1490</ele>
        <time>2020-07-12T18:15:11+02:00</time>
      </trkpt>
      <trkpt lat="44.75153" lon="5.4821">
        <ele>1503</ele>
        <time>2020-07-12T18:15:16+02:00</time>
      </trkpt>
      <trkpt lat="44.75158" lon="5.48208">
        <ele>1501</ele>
        <time>2020-07-12T18:15:21+02:00</time>
      </trkpt>
      <trkpt lat="44.7516" lon="5.48208">
        <ele>1498</ele>
        <time>2020-07-12T18:15:26+02:00</time>
      </trkpt>
      <trkpt lat="44.75165" lon="5.48209">
        <ele>1492</ele>
        <time>2020-07-12T18:15:31+02:00</time>
      </trkpt>
      <trkpt lat="44.75155" lon="5.48189">
        <ele>1530</ele>
        <time>2020-07-12T18:15:36+02:00</time>
      </trkpt>
      <trkpt lat="44.7515" lon="5.48166">
        <ele>1576</ele>
        <time>2020-07-12T18:15:41+02:00</time>
      </trkpt>
      <trkpt lat="44.7515" lon="5.48158">
        <ele>1586</ele>
        <time>2020-07-12T18:15:46+02:00</time>
      </trkpt>
      <trkpt lat="44.75155" lon="5.48157">
        <ele>1585</ele>
        <time>2020-07-12T18:15:51+02:00</time>
      </trkpt>
      <trkpt lat="44.75163" lon="5.48158">
        <ele>1580</ele>
        <time>2020-07-12T18:15:56+02:00</time>
      </trkpt>
      <trkpt lat="44.75166" lon="5.48159">
        <ele>1575</ele>
        <time>2020-07-12T18:16:01+02:00</time>
      </trkpt>
      <trkpt lat="44.75173" lon="5.48162">
        <ele>1564</ele>
        <time>2020-07-12T18:16:06+02:00</time>
      </trkpt>
      <trkpt lat="44.75179" lon="5.48162">
        <ele>1556</ele>
        <time>2020-07-12T18:16:11+02:00</time>
      </trkpt>
      <trkpt lat="44.75185" lon="5.48163">
        <ele>1549</ele>
        <time>2020-07-12T18:16:16+02:00</time>
      </trkpt>
      <trkpt lat="44.7519" lon="5.48163">
        <ele>1541</ele>
        <time>2020-07-12T18:16:21+02:00</time>
      </trkpt>
      <trkpt lat="44.75206" lon="5.48166">
        <ele>1522</ele>
        <time>2020-07-12T18:16:26+02:00</time>
      </trkpt>
      <trkpt lat="44.75208" lon="5.48166">
        <ele>1521</ele>
        <time>2020-07-12T18:16:31+02:00</time>
      </trkpt>
      <trkpt lat="44.7522" lon="5.48168">
        <ele>1512</ele>
        <time>2020-07-12T18:16:36+02:00</time>
      </trkpt>
      <trkpt lat="44.75226" lon="5.48169">
        <ele>1509</ele>
        <time>2020-07-12T18:16:41+02:00</time>
      </trkpt>
      <trkpt lat="44.75232" lon="5.48168">
        <ele>1509</ele>
        <time>2020-07-12T18:16:46+02:00</time>
      </trkpt>
      <trkpt lat="44.75232" lon="5.48158">
        <ele>1530</ele>
        <time>2020-07-12T18:16:51+02:00</time>
      </trkpt>
      <trkpt lat="44.75229" lon="5.4814">
        <ele>1570</ele>
        <time>2020-07-12T18:16:56+02:00</time>
      </trkpt>
      <trkpt lat="44.7523" lon="5.48134">
        <ele>1579</ele>
        <time>2020-07-12T18:17:01+02:00</time>
      </trkpt>
      <trkpt lat="44.75236" lon="5.48134">
        <ele>1573</ele>
        <time>2020-07-12T18:17:06+02:00</time>
      </trkpt>
      <trkpt lat="44.75241" lon="5.48135">
        <ele>1568</ele>
        <time>2020-07-12T18:17:11+02:00</time>
      </trkpt>
      <trkpt lat="44.75245" lon="5.48137">
        <ele>1561</ele>
        <time>2020-07-12T18:17:16+02:00</time>
      </trkpt>
      <trkpt lat="44.75256" lon="5.48144">
        <ele>1543</ele>
        <time>2020-07-12T18:17:21+02:00</time>
      </trkpt>
      <trkpt lat="44.75261" lon="5.48147">
        <ele>1536</ele>
        <time>2020-07-12T18:17:26+02:00</time>
      </trkpt>
      <trkpt lat="44.75263" lon="5.48143">
        <ele>1541</ele>
        <time>2020-07-12T18:17:31+02:00</time>
      </trkpt>
      <trkpt lat="44.7526" lon="5.48126">
        <ele>1571</ele>
        <time>2020-07-12T18:17:36+02:00</time>
      </trkpt>
      <trkpt lat="44.75257" lon="5.48115">
        <ele>1592</ele>
        <time>2020-07-12T18:17:41+02:00</time>
      </trkpt>
      <trkpt lat="44.75254" lon="5.48104">
        <ele>1607</ele>
        <time>2020-07-12T18:17:46+02:00</time>
      </trkpt>
      <trkpt lat="44.75252" lon="5.48096">
        <ele>1616</ele>
        <time>2020-07-12T18:17:51+02:00</time>
      </trkpt>
      <trkpt lat="44.75248" lon="5.4809">
        <ele>1624</ele>
        <time>2020-07-12T18:17:56+02:00</time>
      </trkpt>
      <trkpt lat="44.75247" lon="5.48087">
        <ele>1627</ele>
        <time>2020-07-12T18:18:01+02:00</time>
      </trkpt>
      <trkpt lat="44.75263" lon="5.48111">
        <ele>1594</ele>
        <time>2020-07-12T18:18:06+02:00</time>
      </trkpt>
      <trkpt lat="44.75271" lon="5.48123">
        <ele>1569</ele>
        <time>2020-07-12T18:18:11+02:00</time>
      </trkpt>
      <trkpt lat="44.75277" lon="5.48132">
        <ele>1551</ele>
        <time>2020-07-12T18:18:16+02:00</time>
      </trkpt>
      <trkpt lat="44.75281" lon="5.48133">
        <ele>1547</ele>
        <time>2020-07-12T18:18:21+02:00</time>
      </trkpt>
      <trkpt lat="44.75286" lon="5.48129">
        <ele>1554</ele>
        <time>2020-07-12T18:18:26+02:00</time>
      </trkpt>
      <trkpt lat="44.75292" lon="5.48123">
        <ele>1562</ele>
        <time>2020-07-12T18:18:31+02:00</time>
      </trkpt>
      <trkpt lat="44.753" lon="5.48116">
        <ele>1572</ele>
        <time>2020-07-12T18:18:36+02:00</time>
      </trkpt>
      <trkpt lat="44.75305" lon="5.48115">
        <ele>1572</ele>
        <time>2020-07-12T18:18:41+02:00</time>
      </trkpt>
      <trkpt lat="44.75311" lon="5.48119">
        <ele>1566</ele>
        <time>2020-07-12T18:18:46+02:00</time>
      </trkpt>
      <trkpt lat="44.75316" lon="5.48122">
        <ele>1561</ele>
        <time>2020-07-12T18:18:51+02:00</time>
      </trkpt>
      <trkpt lat="44.7532" lon="5.48124">
        <ele>1557</ele>
        <time>2020-07-12T18:18:56+02:00</time>
      </trkpt>
      <trkpt lat="44.75329" lon="5.48126">
        <ele>1553</ele>
        <time>2020-07-12T18:19:01+02:00</time>
      </trkpt>
      <trkpt lat="44.75337" lon="5.48127">
        <ele>1546</ele>
        <time>2020-07-12T18:19:06+02:00</time>
      </trkpt>
      <trkpt lat="44.75342" lon="5.48119">
        <ele>1551</ele>
        <time>2020-07-12T18:19:11+02:00</time>
      </trkpt>
      <trkpt lat="44.75349" lon="5.48107">
        <ele>1562</ele>
        <time>2020-07-12T18:19:16+02:00</time>
      </trkpt>
      <trkpt lat="44.75354" lon="5.48097">
        <ele>1568</ele>
        <time>2020-07-12T18:19:21+02:00</time>
      </trkpt>
      <trkpt lat="44.75358" lon="5.4809">
        <ele>1575</ele>
        <time>2020-07-12T18:19:26+02:00</time>
      </trkpt>
      <trkpt lat="44.7536" lon="5.48081">
        <ele>1584</ele>
        <time>2020-07-12T18:19:31+02:00</time>
      </trkpt>
      <trkpt lat="44.75365" lon="5.48076">
        <ele>1585</ele>
        <time>2020-07-12T18:19:36+02:00</time>
      </trkpt>
      <trkpt lat="44.75369" lon="5.48075">
        <ele>1581</ele>
        <time>2020-07-12T18:19:41+02:00</time>
      </trkpt>
      <trkpt lat="44.75374" lon="5.48076">
        <ele>1575</ele>
        <time>2020-07-12T18:19:46+02:00</time>
      </trkpt>
      <trkpt lat="44.75381" lon="5.48079">
        <ele>1565</ele>
        <time>2020-07-12T18:19:51+02:00</time>
      </trkpt>
      <trkpt lat="44.75391" lon="5.48084">
        <ele>1546</ele>
        <time>2020-07-12T18:19:56+02:00</time>
      </trkpt>
      <trkpt lat="44.75392" lon="5.48084">
        <ele>1545</ele>
        <time>2020-07-12T18:20:01+02:00</time>
      </trkpt>
      <trkpt lat="44.75398" lon="5.48087">
        <ele>1529</ele>
        <time>2020-07-12T18:20:06+02:00</time>
      </trkpt>
      <trkpt lat="44.75408" lon="5.48088">
        <ele>1512</ele>
        <time>2020-07-12T18:20:11+02:00</time>
      </trkpt>
      <trkpt lat="44.75412" lon="5.48088">
        <ele>1506</ele>
        <time>2020-07-12T18:20:16+02:00</time>
      </trkpt>
      <trkpt lat="44.75413" lon="5.48071">
        <ele>1537</ele>
        <time>2020-07-12T18:20:21+02:00</time>
      </trkpt>
      <trkpt lat="44.75418" lon="5.48065">
        <ele>1543</ele>
        <time>2020-07-12T18:20:26+02:00</time>
      </trkpt>
      <trkpt lat="44.75424" lon="5.48059">
        <ele>1547</ele>
        <time>2020-07-12T18:20:31+02:00</time>
      </trkpt>
      <trkpt lat="44.75427" lon="5.48055">
        <ele>1549</ele>
        <time>2020-07-12T18:20:36+02:00</time>
      </trkpt>
      <trkpt lat="44.75431" lon="5.48049">
        <ele>1554</ele>
        <time>2020-07-12T18:20:41+02:00</time>
      </trkpt>
      <trkpt lat="44.75436" lon="5.48041">
        <ele>1562</ele>
        <time>2020-07-12T18:20:46+02:00</time>
      </trkpt>
      <trkpt lat="44.75439" lon="5.48036">
        <ele>1568</ele>
        <time>2020-07-12T18:20:51+02:00</time>
      </trkpt>
      <trkpt lat="44.75444" lon="5.48032">
        <ele>1570</ele>
        <time>2020-07-12T18:20:56+02:00</time>
      </trkpt>
      <trkpt lat="44.75449" lon="5.48031">
        <ele>1565</ele>
        <time>2020-07-12T18:21:01+02:00</time>
      </trkpt>
      <trkpt lat="44.75455" lon="5.48032">
        <ele>1557</ele>
        <time>2020-07-12T18:21:06+02:00</time>
      </trkpt>
      <trkpt lat="44.75461" lon="5.48032">
        <ele>1547</ele>
        <time>2020-07-12T18:21:11+02:00</time>
      </trkpt>
      <trkpt lat="44.75467" lon="5.48031">
        <ele>1541</ele>
        <time>2020-07-12T18:21:16+02:00</time>
      </trkpt>
      <trkpt lat="44.75471" lon="5.48028">
        <ele>1541</ele>
        <time>2020-07-12T18:21:21+02:00</time>
      </trkpt>
      <trkpt lat="44.75475" lon="5.48024">
        <ele>1545</ele>
        <time>2020-07-12T18:21:26+02:00</time>
      </trkpt>
      <trkpt lat="44.75481" lon="5.48016">
        <ele>1554</ele>
        <time>2020-07-12T18:21:31+02:00</time>
      </trkpt>
      <trkpt lat="44.75485" lon="5.48015">
        <ele>1551</ele>
        <time>2020-07-12T18:21:36+02:00</time>
      </trkpt>
      <trkpt lat="44.75487" lon="5.4801">
        <ele>1559</ele>
        <time>2020-07-12T18:21:41+02:00</time>
      </trkpt>
      <trkpt lat="44.75494" lon="5.48004">
        <ele>1560</ele>
        <time>2020-07-12T18:21:46+02:00</time>
      </trkpt>
      <trkpt lat="44.75498" lon="5.48002">
        <ele>1560</ele>
        <time>2020-07-12T18:21:51+02:00</time>
      </trkpt>
      <trkpt lat="44.75502" lon="5.47995">
        <ele>1567</ele>
        <time>2020-07-12T18:21:56+02:00</time>
      </trkpt>
      <trkpt lat="44.75505" lon="5.47993">
        <ele>1568</ele>
        <time>2020-07-12T18:22:01+02:00</time>
      </trkpt>
      <trkpt lat="44.75517" lon="5.47987">
        <ele>1561</ele>
        <time>2020-07-12T18:22:06+02:00</time>
      </trkpt>
      <trkpt lat="44.7552" lon="5.47981">
        <ele>1570</ele>
        <time>2020-07-12T18:22:11+02:00</time>
      </trkpt>
      <trkpt lat="44.75527" lon="5.47975">
        <ele>1572</ele>
        <time>2020-07-12T18:22:16+02:00</time>
      </trkpt>
      <trkpt lat="44.75534" lon="5.47974">
        <ele>1564</ele>
        <time>2020-07-12T18:22:21+02:00</time>
      </trkpt>
      <trkpt lat="44.75542" lon="5.47974">
        <ele>1555</ele>
        <time>2020-07-12T18:22:26+02:00</time>
      </trkpt>
      <trkpt lat="44.7555" lon="5.4798">
        <ele>1532</ele>
        <time>2020-07-12T18:22:31+02:00</time>
      </trkpt>
      <trkpt lat="44.75559" lon="5.47985">
        <ele>1514</ele>
        <time>2020-07-12T18:22:36+02:00</time>
      </trkpt>
      <trkpt lat="44.75567" lon="5.47985">
        <ele>1503</ele>
        <time>2020-07-12T18:22:41+02:00</time>
      </trkpt>
      <trkpt lat="44.75578" lon="5.47982">
        <ele>1494</ele>
        <time>2020-07-12T18:22:46+02:00</time>
      </trkpt>
      <trkpt lat="44.75585" lon="5.47975">
        <ele>1497</ele>
        <time>2020-07-12T18:22:51+02:00</time>
      </trkpt>
      <trkpt lat="44.756" lon="5.47961">
        <ele>1504</ele>
        <time>2020-07-12T18:22:56+02:00</time>
      </trkpt>
      <trkpt lat="44.75607" lon="5.47955">
        <ele>1507</ele>
        <time>2020-07-12T18:23:01+02:00</time>
      </trkpt>
      <trkpt lat="44.75613" lon="5.47947">
        <ele>1518</ele>
        <time>2020-07-12T18:23:06+02:00</time>
      </trkpt>
      <trkpt lat="44.75619" lon="5.47948">
        <ele>1512</ele>
        <time>2020-07-12T18:23:11+02:00</time>
      </trkpt>
      <trkpt lat="44.75624" lon="5.4793">
        <ele>1541</ele>
        <time>2020-07-12T18:23:16+02:00</time>
      </trkpt>
      <trkpt lat="44.75628" lon="5.47928">
        <ele>1543</ele>
        <time>2020-07-12T18:23:21+02:00</time>
      </trkpt>
      <trkpt lat="44.75633" lon="5.47924">
        <ele>1547</ele>
        <time>2020-07-12T18:23:26+02:00</time>
      </trkpt>
      <trkpt lat="44.75638" lon="5.47918">
        <ele>1554</ele>
        <time>2020-07-12T18:23:31+02:00</time>
      </trkpt>
      <trkpt lat="44.75642" lon="5.47914">
        <ele>1557</ele>
        <time>2020-07-12T18:23:36+02:00</time>
      </trkpt>
      <trkpt lat="44.75645" lon="5.4791">
        <ele>1561</ele>
        <time>2020-07-12T18:23:41+02:00</time>
      </trkpt>
      <trkpt lat="44.75653" lon="5.47907">
        <ele>1563</ele>
        <time>2020-07-12T18:23:46+02:00</time>
      </trkpt>
      <trkpt lat="44.75654" lon="5.47904">
        <ele>1565</ele>
        <time>2020-07-12T18:23:51+02:00</time>
      </trkpt>
      <trkpt lat="44.75649" lon="5.479">
        <ele>1570</ele>
        <time>2020-07-12T18:23:56+02:00</time>
      </trkpt>
      <trkpt lat="44.75645" lon="5.479">
        <ele>1571</ele>
        <time>2020-07-12T18:24:01+02:00</time>
      </trkpt>
      <trkpt lat="44.7564" lon="5.479">
        <ele>1572</ele>
        <time>2020-07-12T18:24:06+02:00</time>
      </trkpt>
      <trkpt lat="44.75633" lon="5.47902">
        <ele>1573</ele>
        <time>2020-07-12T18:24:11+02:00</time>
      </trkpt>
      <trkpt lat="44.75629" lon="5.47903">
        <ele>1575</ele>
        <time>2020-07-12T18:24:16+02:00</time>
      </trkpt>
      <trkpt lat="44.75626" lon="5.47902">
        <ele>1579</ele>
        <time>2020-07-12T18:24:21+02:00</time>
      </trkpt>
      <trkpt lat="44.75624" lon="5.47893">
        <ele>1590</ele>
        <time>2020-07-12T18:24:26+02:00</time>
      </trkpt>
      <trkpt lat="44.75624" lon="5.47885">
        <ele>1597</ele>
        <time>2020-07-12T18:24:31+02:00</time>
      </trkpt>
      <trkpt lat="44.75623" lon="5.4786">
        <ele>1616</ele>
        <time>2020-07-12T18:24:36+02:00</time>
      </trkpt>
      <trkpt lat="44.75628" lon="5.47863">
        <ele>1611</ele>
        <time>2020-07-12T18:24:41+02:00</time>
      </trkpt>
      <trkpt lat="44.75634" lon="5.4787">
        <ele>1602</ele>
        <time>2020-07-12T18:24:46+02:00</time>
      </trkpt>
      <trkpt lat="44.75641" lon="5.47875">
        <ele>1594</ele>
        <time>2020-07-12T18:24:51+02:00</time>
      </trkpt>
      <trkpt lat="44.75646" lon="5.47877">
        <ele>1591</ele>
        <time>2020-07-12T18:24:56+02:00</time>
      </trkpt>
      <trkpt lat="44.75652" lon="5.47878">
        <ele>1588</ele>
        <time>2020-07-12T18:25:01+02:00</time>
      </trkpt>
      <trkpt lat="44.75659" lon="5.47878">
        <ele>1586</ele>
        <time>2020-07-12T18:25:06+02:00</time>
      </trkpt>
      <trkpt lat="44.75666" lon="5.47876">
        <ele>1586</ele>
        <time>2020-07-12T18:25:11+02:00</time>
      </trkpt>
      <trkpt lat="44.75676" lon="5.47869">
        <ele>1587</ele>
        <time>2020-07-12T18:25:16+02:00</time>
      </trkpt>
      <trkpt lat="44.75683" lon="5.47864">
        <ele>1588</ele>
        <time>2020-07-12T18:25:21+02:00</time>
      </trkpt>
      <trkpt lat="44.75689" lon="5.47859">
        <ele>1589</ele>
        <time>2020-07-12T18:25:26+02:00</time>
      </trkpt>
      <trkpt lat="44.75701" lon="5.47851">
        <ele>1590</ele>
        <time>2020-07-12T18:25:31+02:00</time>
      </trkpt>
      <trkpt lat="44.75707" lon="5.47845">
        <ele>1593</ele>
        <time>2020-07-12T18:25:36+02:00</time>
      </trkpt>
      <trkpt lat="44.75717" lon="5.47837">
        <ele>1596</ele>
        <time>2020-07-12T18:25:41+02:00</time>
      </trkpt>
      <trkpt lat="44.75718" lon="5.47836">
        <ele>1597</ele>
        <time>2020-07-12T18:25:46+02:00</time>
      </trkpt>
      <trkpt lat="44.75724" lon="5.47832">
        <ele>1599</ele>
        <time>2020-07-12T18:25:51+02:00</time>
      </trkpt>
      <trkpt lat="44.7573" lon="5.47831">
        <ele>1601</ele>
        <time>2020-07-12T18:25:56+02:00</time>
      </trkpt>
      <trkpt lat="44.75737" lon="5.47831">
        <ele>1602</ele>
        <time>2020-07-12T18:26:01+02:00</time>
      </trkpt>
      <trkpt lat="44.75745" lon="5.47834">
        <ele>1601</ele>
        <time>2020-07-12T18:26:06+02:00</time>
      </trkpt>
      <trkpt lat="44.75748" lon="5.47838">
        <ele>1600</ele>
        <time>2020-07-12T18:26:11+02:00</time>
      </trkpt>
      <trkpt lat="44.75753" lon="5.47844">
        <ele>1599</ele>
        <time>2020-07-12T18:26:16+02:00</time>
      </trkpt>
      <trkpt lat="44.75755" lon="5.47845">
        <ele>1599</ele>
        <time>2020-07-12T18:26:21+02:00</time>
      </trkpt>
      <trkpt lat="44.75757" lon="5.47858">
        <ele>1593</ele>
        <time>2020-07-12T18:26:26+02:00</time>
      </trkpt>
      <trkpt lat="44.75759" lon="5.47864">
        <ele>1592</ele>
        <time>2020-07-12T18:26:31+02:00</time>
      </trkpt>
      <trkpt lat="44.75763" lon="5.47874">
        <ele>1588</ele>
        <time>2020-07-12T18:26:36+02:00</time>
      </trkpt>
      <trkpt lat="44.75767" lon="5.47881">
        <ele>1586</ele>
        <time>2020-07-12T18:26:41+02:00</time>
      </trkpt>
      <trkpt lat="44.75772" lon="5.47889">
        <ele>1585</ele>
        <time>2020-07-12T18:26:46+02:00</time>
      </trkpt>
      <trkpt lat="44.75775" lon="5.47895">
        <ele>1582</ele>
        <time>2020-07-12T18:26:51+02:00</time>
      </trkpt>
      <trkpt lat="44.75778" lon="5.47904">
        <ele>1576</ele>
        <time>2020-07-12T18:26:56+02:00</time>
      </trkpt>
      <trkpt lat="44.75779" lon="5.47908">
        <ele>1572</ele>
        <time>2020-07-12T18:27:01+02:00</time>
      </trkpt>
      <trkpt lat="44.75772" lon="5.47939">
        <ele>1523</ele>
        <time>2020-07-12T18:27:06+02:00</time>
      </trkpt>
      <trkpt lat="44.7577" lon="5.47952">
        <ele>1499</ele>
        <time>2020-07-12T18:27:11+02:00</time>
      </trkpt>
      <trkpt lat="44.75767" lon="5.47961">
        <ele>1478</ele>
        <time>2020-07-12T18:27:16+02:00</time>
      </trkpt>
      <trkpt lat="44.75766" lon="5.47972">
        <ele>1456</ele>
        <time>2020-07-12T18:27:21+02:00</time>
      </trkpt>
      <trkpt lat="44.7576" lon="5.47985">
        <ele>1425</ele>
        <time>2020-07-12T18:27:26+02:00</time>
      </trkpt>
      <trkpt lat="44.75759" lon="5.47998">
        <ele>1401</ele>
        <time>2020-07-12T18:27:31+02:00</time>
      </trkpt>
      <trkpt lat="44.75756" lon="5.4801">
        <ele>1378</ele>
        <time>2020-07-12T18:27:36+02:00</time>
      </trkpt>
      <trkpt lat="44.75759" lon="5.48014">
        <ele>1373</ele>
        <time>2020-07-12T18:27:41+02:00</time>
      </trkpt>
      <trkpt lat="44.75765" lon="5.48013">
        <ele>1382</ele>
        <time>2020-07-12T18:27:46+02:00</time>
      </trkpt>
      <trkpt lat="44.75768" lon="5.48009">
        <ele>1392</ele>
        <time>2020-07-12T18:27:51+02:00</time>
      </trkpt>
      <trkpt lat="44.75772" lon="5.48005">
        <ele>1403</ele>
        <time>2020-07-12T18:27:56+02:00</time>
      </trkpt>
      <trkpt lat="44.75776" lon="5.47999">
        <ele>1420</ele>
        <time>2020-07-12T18:28:01+02:00</time>
      </trkpt>
      <trkpt lat="44.7578" lon="5.47986">
        <ele>1448</ele>
        <time>2020-07-12T18:28:06+02:00</time>
      </trkpt>
      <trkpt lat="44.75786" lon="5.47974">
        <ele>1476</ele>
        <time>2020-07-12T18:28:11+02:00</time>
      </trkpt>
      <trkpt lat="44.75796" lon="5.47987">
        <ele>1462</ele>
        <time>2020-07-12T18:28:16+02:00</time>
      </trkpt>
      <trkpt lat="44.75802" lon="5.47996">
        <ele>1451</ele>
        <time>2020-07-12T18:28:21+02:00</time>
      </trkpt>
      <trkpt lat="44.75808" lon="5.48003">
        <ele>1441</ele>
        <time>2020-07-12T18:28:26+02:00</time>
      </trkpt>
      <trkpt lat="44.75807" lon="5.47996">
        <ele>1454</ele>
        <time>2020-07-12T18:28:31+02:00</time>
      </trkpt>
      <trkpt lat="44.75807" lon="5.47986">
        <ele>1474</ele>
        <time>2020-07-12T18:28:36+02:00</time>
      </trkpt>
      <trkpt lat="44.75807" lon="5.47981">
        <ele>1485</ele>
        <time>2020-07-12T18:28:41+02:00</time>
      </trkpt>
      <trkpt lat="44.75806" lon="5.47971">
        <ele>1506</ele>
        <time>2020-07-12T18:28:46+02:00</time>
      </trkpt>
      <trkpt lat="44.75805" lon="5.47959">
        <ele>1531</ele>
        <time>2020-07-12T18:28:51+02:00</time>
      </trkpt>
      <trkpt lat="44.75804" lon="5.47951">
        <ele>1548</ele>
        <time>2020-07-12T18:28:56+02:00</time>
      </trkpt>
      <trkpt lat="44.75803" lon="5.47939">
        <ele>1569</ele>
        <time>2020-07-12T18:29:01+02:00</time>
      </trkpt>
      <trkpt lat="44.75803" lon="5.47921">
        <ele>1592</ele>
        <time>2020-07-12T18:29:06+02:00</time>
      </trkpt>
      <trkpt lat="44.75803" lon="5.47918">
        <ele>1596</ele>
        <time>2020-07-12T18:29:11+02:00</time>
      </trkpt>
      <trkpt lat="44.75849" lon="5.47883">
        <ele>1616</ele>
        <time>2020-07-12T18:29:16+02:00</time>
      </trkpt>
      <trkpt lat="44.75859" lon="5.47887">
        <ele>1609</ele>
        <time>2020-07-12T18:29:21+02:00</time>
      </trkpt>
      <trkpt lat="44.75875" lon="5.47894">
        <ele>1605</ele>
        <time>2020-07-12T18:29:26+02:00</time>
      </trkpt>
      <trkpt lat="44.7588" lon="5.47898">
        <ele>1602</ele>
        <time>2020-07-12T18:29:31+02:00</time>
      </trkpt>
      <trkpt lat="44.75887" lon="5.47905">
        <ele>1598</ele>
        <time>2020-07-12T18:29:36+02:00</time>
      </trkpt>
      <trkpt lat="44.75893" lon="5.47906">
        <ele>1599</ele>
        <time>2020-07-12T18:29:41+02:00</time>
      </trkpt>
      <trkpt lat="44.75897" lon="5.47905">
        <ele>1602</ele>
        <time>2020-07-12T18:29:46+02:00</time>
      </trkpt>
      <trkpt lat="44.75902" lon="5.47905">
        <ele>1604</ele>
        <time>2020-07-12T18:29:51+02:00</time>
      </trkpt>
      <trkpt lat="44.759" lon="5.47913">
        <ele>1594</ele>
        <time>2020-07-12T18:29:56+02:00</time>
      </trkpt>
      <trkpt lat="44.75899" lon="5.4792">
        <ele>1585</ele>
        <time>2020-07-12T18:30:01+02:00</time>
      </trkpt>
      <trkpt lat="44.759" lon="5.47925">
        <ele>1576</ele>
        <time>2020-07-12T18:30:06+02:00</time>
      </trkpt>
      <trkpt lat="44.75901" lon="5.47937">
        <ele>1556</ele>
        <time>2020-07-12T18:30:11+02:00</time>
      </trkpt>
      <trkpt lat="44.75903" lon="5.4795">
        <ele>1535</ele>
        <time>2020-07-12T18:30:16+02:00</time>
      </trkpt>
      <trkpt lat="44.75907" lon="5.47939">
        <ele>1557</ele>
        <time>2020-07-12T18:30:21+02:00</time>
      </trkpt>
      <trkpt lat="44.75919" lon="5.47938">
        <ele>1563</ele>
        <time>2020-07-12T18:30:26+02:00</time>
      </trkpt>
      <trkpt lat="44.75925" lon="5.47938">
        <ele>1567</ele>
        <time>2020-07-12T18:30:31+02:00</time>
      </trkpt>
      <trkpt lat="44.75931" lon="5.47944">
        <ele>1561</ele>
        <time>2020-07-12T18:30:36+02:00</time>
      </trkpt>
      <trkpt lat="44.75938" lon="5.47949">
        <ele>1556</ele>
        <time>2020-07-12T18:30:41+02:00</time>
      </trkpt>
      <trkpt lat="44.75944" lon="5.47956">
        <ele>1547</ele>
        <time>2020-07-12T18:30:46+02:00</time>
      </trkpt>
      <trkpt lat="44.75952" lon="5.4796">
        <ele>1548</ele>
        <time>2020-07-12T18:30:51+02:00</time>
      </trkpt>
      <trkpt lat="44.75957" lon="5.47965">
        <ele>1545</ele>
        <time>2020-07-12T18:30:56+02:00</time>
      </trkpt>
      <trkpt lat="44.75961" lon="5.47969">
        <ele>1542</ele>
        <time>2020-07-12T18:31:01+02:00</time>
      </trkpt>
      <trkpt lat="44.75965" lon="5.47974">
        <ele>1536</ele>
        <time>2020-07-12T18:31:06+02:00</time>
      </trkpt>
      <trkpt lat="44.75976" lon="5.47983">
        <ele>1538</ele>
        <time>2020-07-12T18:31:11+02:00</time>
      </trkpt>
      <trkpt lat="44.75985" lon="5.47985">
        <ele>1551</ele>
        <time>2020-07-12T18:31:16+02:00</time>
      </trkpt>
      <trkpt lat="44.75996" lon="5.47991">
        <ele>1563</ele>
        <time>2020-07-12T18:31:21+02:00</time>
      </trkpt>
      <trkpt lat="44.75998" lon="5.47986">
        <ele>1574</ele>
        <time>2020-07-12T18:31:26+02:00</time>
      </trkpt>
      <trkpt lat="44.76" lon="5.47977">
        <ele>1593</ele>
        <time>2020-07-12T18:31:31+02:00</time>
      </trkpt>
      <trkpt lat="44.76001" lon="5.47966">
        <ele>1607</ele>
        <time>2020-07-12T18:31:36+02:00</time>
      </trkpt>
      <trkpt lat="44.76003" lon="5.47961">
        <ele>1613</ele>
        <time>2020-07-12T18:31:41+02:00</time>
      </trkpt>
      <trkpt lat="44.76007" lon="5.47952">
        <ele>1621</ele>
        <time>2020-07-12T18:31:46+02:00</time>
      </trkpt>
      <trkpt lat="44.76009" lon="5.47946">
        <ele>1628</ele>
        <time>2020-07-12T18:31:51+02:00</time>
      </trkpt>
      <trkpt lat="44.76012" lon="5.47936">
        <ele>1639</ele>
        <time>2020-07-12T18:31:56+02:00</time>
      </trkpt>
      <trkpt lat="44.76012" lon="5.47935">
        <ele>1641</ele>
        <time>2020-07-12T18:32:01+02:00</time>
      </trkpt>
      <trkpt lat="44.76022" lon="5.47934">
        <ele>1642</ele>
        <time>2020-07-12T18:32:06+02:00</time>
      </trkpt>
      <trkpt lat="44.7603" lon="5.4794">
        <ele>1632</ele>
        <time>2020-07-12T18:32:11+02:00</time>
      </trkpt>
      <trkpt lat="44.76059" lon="5.47934">
        <ele>1602</ele>
        <time>2020-07-12T18:32:16+02:00</time>
      </trkpt>
      <trkpt lat="44.76059" lon="5.47942">
        <ele>1589</ele>
        <time>2020-07-12T18:32:21+02:00</time>
      </trkpt>
      <trkpt lat="44.76059" lon="5.4795">
        <ele>1580</ele>
        <time>2020-07-12T18:32:26+02:00</time>
      </trkpt>
      <trkpt lat="44.76058" lon="5.47959">
        <ele>1573</ele>
        <time>2020-07-12T18:32:31+02:00</time>
      </trkpt>
      <trkpt lat="44.76055" lon="5.47969">
        <ele>1568</ele>
        <time>2020-07-12T18:32:36+02:00</time>
      </trkpt>
      <trkpt lat="44.7605" lon="5.47979">
        <ele>1569</ele>
        <time>2020-07-12T18:32:41+02:00</time>
      </trkpt>
      <trkpt lat="44.76045" lon="5.47992">
        <ele>1566</ele>
        <time>2020-07-12T18:32:46+02:00</time>
      </trkpt>
      <trkpt lat="44.7604" lon="5.48005">
        <ele>1558</ele>
        <time>2020-07-12T18:32:51+02:00</time>
      </trkpt>
      <trkpt lat="44.76039" lon="5.48015">
        <ele>1545</ele>
        <time>2020-07-12T18:32:56+02:00</time>
      </trkpt>
      <trkpt lat="44.76044" lon="5.48031">
        <ele>1523</ele>
        <time>2020-07-12T18:33:01+02:00</time>
      </trkpt>
      <trkpt lat="44.76053" lon="5.48044">
        <ele>1513</ele>
        <time>2020-07-12T18:33:06+02:00</time>
      </trkpt>
      <trkpt lat="44.76068" lon="5.48057">
        <ele>1504</ele>
        <time>2020-07-12T18:33:11+02:00</time>
      </trkpt>
      <trkpt lat="44.76077" lon="5.4806">
        <ele>1503</ele>
        <time>2020-07-12T18:33:16+02:00</time>
      </trkpt>
      <trkpt lat="44.7609" lon="5.48063">
        <ele>1492</ele>
        <time>2020-07-12T18:33:21+02:00</time>
      </trkpt>
      <trkpt lat="44.76101" lon="5.4806">
        <ele>1479</ele>
        <time>2020-07-12T18:33:26+02:00</time>
      </trkpt>
      <trkpt lat="44.76101" lon="5.48053">
        <ele>1483</ele>
        <time>2020-07-12T18:33:31+02:00</time>
      </trkpt>
      <trkpt lat="44.76089" lon="5.48047">
        <ele>1502</ele>
        <time>2020-07-12T18:33:36+02:00</time>
      </trkpt>
      <trkpt lat="44.76075" lon="5.4804">
        <ele>1515</ele>
        <time>2020-07-12T18:33:41+02:00</time>
      </trkpt>
      <trkpt lat="44.76061" lon="5.48029">
        <ele>1526</ele>
        <time>2020-07-12T18:33:46+02:00</time>
      </trkpt>
      <trkpt lat="44.76069" lon="5.48013">
        <ele>1532</ele>
        <time>2020-07-12T18:33:51+02:00</time>
      </trkpt>
      <trkpt lat="44.76095" lon="5.47998">
        <ele>1521</ele>
        <time>2020-07-12T18:33:56+02:00</time>
      </trkpt>
      <trkpt lat="44.76099" lon="5.4799">
        <ele>1523</ele>
        <time>2020-07-12T18:34:01+02:00</time>
      </trkpt>
      <trkpt lat="44.76102" lon="5.47978">
        <ele>1528</ele>
        <time>2020-07-12T18:34:06+02:00</time>
      </trkpt>
      <trkpt lat="44.76103" lon="5.4796">
        <ele>1541</ele>
        <time>2020-07-12T18:34:11+02:00</time>
      </trkpt>
      <trkpt lat="44.76105" lon="5.47948">
        <ele>1550</ele>
        <time>2020-07-12T18:34:16+02:00</time>
      </trkpt>
      <trkpt lat="44.76104" lon="5.47946">
        <ele>1551</ele>
        <time>2020-07-12T18:34:21+02:00</time>
      </trkpt>
      <trkpt lat="44.76108" lon="5.47938">
        <ele>1560</ele>
        <time>2020-07-12T18:34:26+02:00</time>
      </trkpt>
      <trkpt lat="44.76116" lon="5.47931">
        <ele>1567</ele>
        <time>2020-07-12T18:34:31+02:00</time>
      </trkpt>
      <trkpt lat="44.76118" lon="5.47931">
        <ele>1567</ele>
        <time>2020-07-12T18:34:36+02:00</time>
      </trkpt>
      <trkpt lat="44.76131" lon="5.47937">
        <ele>1557</ele>
        <time>2020-07-12T18:34:41+02:00</time>
      </trkpt>
      <trkpt lat="44.76161" lon="5.47934">
        <ele>1550</ele>
        <time>2020-07-12T18:34:46+02:00</time>
      </trkpt>
      <trkpt lat="44.76174" lon="5.47931">
        <ele>1542</ele>
        <time>2020-07-12T18:34:51+02:00</time>
      </trkpt>
      <trkpt lat="44.76179" lon="5.47922">
        <ele>1546</ele>
        <time>2020-07-12T18:34:56+02:00</time>
      </trkpt>
      <trkpt lat="44.76178" lon="5.47905">
        <ele>1563</ele>
        <time>2020-07-12T18:35:01+02:00</time>
      </trkpt>
      <trkpt lat="44.76175" lon="5.47896">
        <ele>1575</ele>
        <time>2020-07-12T18:35:06+02:00</time>
      </trkpt>
      <trkpt lat="44.76173" lon="5.47884">
        <ele>1589</ele>
        <time>2020-07-12T18:35:11+02:00</time>
      </trkpt>
      <trkpt lat="44.76175" lon="5.47874">
        <ele>1592</ele>
        <time>2020-07-12T18:35:16+02:00</time>
      </trkpt>
      <trkpt lat="44.76175" lon="5.47866">
        <ele>1597</ele>
        <time>2020-07-12T18:35:21+02:00</time>
      </trkpt>
      <trkpt lat="44.7618" lon="5.47857">
        <ele>1595</ele>
        <time>2020-07-12T18:35:26+02:00</time>
      </trkpt>
      <trkpt lat="44.76182" lon="5.47849">
        <ele>1596</ele>
        <time>2020-07-12T18:35:31+02:00</time>
      </trkpt>
      <trkpt lat="44.76179" lon="5.47838">
        <ele>1609</ele>
        <time>2020-07-12T18:35:36+02:00</time>
      </trkpt>
      <trkpt lat="44.76174" lon="5.47825">
        <ele>1626</ele>
        <time>2020-07-12T18:35:41+02:00</time>
      </trkpt>
      <trkpt lat="44.76172" lon="5.47815">
        <ele>1634</ele>
        <time>2020-07-12T18:35:46+02:00</time>
      </trkpt>
      <trkpt lat="44.76173" lon="5.47802">
        <ele>1640</ele>
        <time>2020-07-12T18:35:51+02:00</time>
      </trkpt>
      <trkpt lat="44.76171" lon="5.47795">
        <ele>1646</ele>
        <time>2020-07-12T18:35:56+02:00</time>
      </trkpt>
      <trkpt lat="44.76176" lon="5.4779">
        <ele>1641</ele>
        <time>2020-07-12T18:36:01+02:00</time>
      </trkpt>
      <trkpt lat="44.76184" lon="5.47777">
        <ele>1634</ele>
        <time>2020-07-12T18:36:06+02:00</time>
      </trkpt>
      <trkpt lat="44.76188" lon="5.47774">
        <ele>1629</ele>
        <time>2020-07-12T18:36:11+02:00</time>
      </trkpt>
      <trkpt lat="44.76195" lon="5.47772">
        <ele>1621</ele>
        <time>2020-07-12T18:36:16+02:00</time>
      </trkpt>
      <trkpt lat="44.76206" lon="5.47771">
        <ele>1611</ele>
        <time>2020-07-12T18:36:21+02:00</time>
      </trkpt>
      <trkpt lat="44.76212" lon="5.47769">
        <ele>1607</ele>
        <time>2020-07-12T18:36:26+02:00</time>
      </trkpt>
      <trkpt lat="44.76223" lon="5.47769">
        <ele>1598</ele>
        <time>2020-07-12T18:36:31+02:00</time>
      </trkpt>
      <trkpt lat="44.76229" lon="5.47766">
        <ele>1599</ele>
        <time>2020-07-12T18:36:36+02:00</time>
      </trkpt>
      <trkpt lat="44.76241" lon="5.47763">
        <ele>1598</ele>
        <time>2020-07-12T18:36:41+02:00</time>
      </trkpt>
      <trkpt lat="44.76247" lon="5.4776">
        <ele>1598</ele>
        <time>2020-07-12T18:36:46+02:00</time>
      </trkpt>
      <trkpt lat="44.76253" lon="5.47756">
        <ele>1598</ele>
        <time>2020-07-12T18:36:51+02:00</time>
      </trkpt>
      <trkpt lat="44.76258" lon="5.47752">
        <ele>1596</ele>
        <time>2020-07-12T18:36:56+02:00</time>
      </trkpt>
      <trkpt lat="44.76266" lon="5.47745">
        <ele>1592</ele>
        <time>2020-07-12T18:37:01+02:00</time>
      </trkpt>
      <trkpt lat="44.76269" lon="5.47745">
        <ele>1589</ele>
        <time>2020-07-12T18:37:06+02:00</time>
      </trkpt>
      <trkpt lat="44.76295" lon="5.47734">
        <ele>1585</ele>
        <time>2020-07-12T18:37:11+02:00</time>
      </trkpt>
      <trkpt lat="44.76312" lon="5.47733">
        <ele>1581</ele>
        <time>2020-07-12T18:37:16+02:00</time>
      </trkpt>
      <trkpt lat="44.76318" lon="5.47733">
        <ele>1578</ele>
        <time>2020-07-12T18:37:21+02:00</time>
      </trkpt>
      <trkpt lat="44.76326" lon="5.47731">
        <ele>1575</ele>
        <time>2020-07-12T18:37:26+02:00</time>
      </trkpt>
      <trkpt lat="44.76333" lon="5.47727">
        <ele>1573</ele>
        <time>2020-07-12T18:37:31+02:00</time>
      </trkpt>
      <trkpt lat="44.7634" lon="5.47721">
        <ele>1574</ele>
        <time>2020-07-12T18:37:36+02:00</time>
      </trkpt>
      <trkpt lat="44.76343" lon="5.47711">
        <ele>1579</ele>
        <time>2020-07-12T18:37:41+02:00</time>
      </trkpt>
      <trkpt lat="44.76344" lon="5.47705">
        <ele>1582</ele>
        <time>2020-07-12T18:37:46+02:00</time>
      </trkpt>
      <trkpt lat="44.76345" lon="5.477">
        <ele>1584</ele>
        <time>2020-07-12T18:37:51+02:00</time>
      </trkpt>
      <trkpt lat="44.76352" lon="5.47699">
        <ele>1583</ele>
        <time>2020-07-12T18:37:56+02:00</time>
      </trkpt>
      <trkpt lat="44.76359" lon="5.47699">
        <ele>1581</ele>
        <time>2020-07-12T18:38:01+02:00</time>
      </trkpt>
      <trkpt lat="44.76365" lon="5.47699">
        <ele>1580</ele>
        <time>2020-07-12T18:38:06+02:00</time>
      </trkpt>
      <trkpt lat="44.76371" lon="5.47698">
        <ele>1581</ele>
        <time>2020-07-12T18:38:11+02:00</time>
      </trkpt>
      <trkpt lat="44.76377" lon="5.47698">
        <ele>1581</ele>
        <time>2020-07-12T18:38:16+02:00</time>
      </trkpt>
      <trkpt lat="44.76388" lon="5.47698">
        <ele>1581</ele>
        <time>2020-07-12T18:38:21+02:00</time>
      </trkpt>
      <trkpt lat="44.76399" lon="5.47699">
        <ele>1582</ele>
        <time>2020-07-12T18:38:26+02:00</time>
      </trkpt>
      <trkpt lat="44.76404" lon="5.47699">
        <ele>1583</ele>
        <time>2020-07-12T18:38:31+02:00</time>
      </trkpt>
      <trkpt lat="44.76412" lon="5.47698">
        <ele>1584</ele>
        <time>2020-07-12T18:38:36+02:00</time>
      </trkpt>
      <trkpt lat="44.76416" lon="5.47698">
        <ele>1585</ele>
        <time>2020-07-12T18:38:41+02:00</time>
      </trkpt>
      <trkpt lat="44.76418" lon="5.47695">
        <ele>1588</ele>
        <time>2020-07-12T18:38:46+02:00</time>
      </trkpt>
      <trkpt lat="44.76421" lon="5.4769">
        <ele>1594</ele>
        <time>2020-07-12T18:38:51+02:00</time>
      </trkpt>
      <trkpt lat="44.76427" lon="5.47689">
        <ele>1597</ele>
        <time>2020-07-12T18:38:56+02:00</time>
      </trkpt>
      <trkpt lat="44.76432" lon="5.47689">
        <ele>1600</ele>
        <time>2020-07-12T18:39:01+02:00</time>
      </trkpt>
      <trkpt lat="44.76441" lon="5.47691">
        <ele>1600</ele>
        <time>2020-07-12T18:39:06+02:00</time>
      </trkpt>
      <trkpt lat="44.76452" lon="5.47692">
        <ele>1605</ele>
        <time>2020-07-12T18:39:11+02:00</time>
      </trkpt>
      <trkpt lat="44.76458" lon="5.47693">
        <ele>1607</ele>
        <time>2020-07-12T18:39:16+02:00</time>
      </trkpt>
      <trkpt lat="44.76463" lon="5.47704">
        <ele>1599</ele>
        <time>2020-07-12T18:39:21+02:00</time>
      </trkpt>
      <trkpt lat="44.76494" lon="5.47727">
        <ele>1603</ele>
        <time>2020-07-12T18:39:26+02:00</time>
      </trkpt>
      <trkpt lat="44.76508" lon="5.47743">
        <ele>1603</ele>
        <time>2020-07-12T18:39:31+02:00</time>
      </trkpt>
      <trkpt lat="44.76515" lon="5.47753">
        <ele>1600</ele>
        <time>2020-07-12T18:39:36+02:00</time>
      </trkpt>
      <trkpt lat="44.76524" lon="5.47761">
        <ele>1602</ele>
        <time>2020-07-12T18:39:41+02:00</time>
      </trkpt>
      <trkpt lat="44.76537" lon="5.47771">
        <ele>1598</ele>
        <time>2020-07-12T18:39:46+02:00</time>
      </trkpt>
      <trkpt lat="44.76546" lon="5.47775">
        <ele>1597</ele>
        <time>2020-07-12T18:39:51+02:00</time>
      </trkpt>
      <trkpt lat="44.76554" lon="5.47775">
        <ele>1601</ele>
        <time>2020-07-12T18:39:56+02:00</time>
      </trkpt>
      <trkpt lat="44.76561" lon="5.47775">
        <ele>1601</ele>
        <time>2020-07-12T18:40:01+02:00</time>
      </trkpt>
      <trkpt lat="44.76567" lon="5.47775">
        <ele>1601</ele>
        <time>2020-07-12T18:40:06+02:00</time>
      </trkpt>
      <trkpt lat="44.76574" lon="5.47775">
        <ele>1601</ele>
        <time>2020-07-12T18:40:11+02:00</time>
      </trkpt>
      <trkpt lat="44.76578" lon="5.47775">
        <ele>1600</ele>
        <time>2020-07-12T18:40:16+02:00</time>
      </trkpt>
      <trkpt lat="44.76677" lon="5.47793">
        <ele>1600</ele>
        <time>2020-07-12T18:40:21+02:00</time>
      </trkpt>
      <trkpt lat="44.76689" lon="5.47784">
        <ele>1603</ele>
        <time>2020-07-12T18:40:26+02:00</time>
      </trkpt>
      <trkpt lat="44.76715" lon="5.47785">
        <ele>1599</ele>
        <time>2020-07-12T18:40:31+02:00</time>
      </trkpt>
      <trkpt lat="44.7672" lon="5.47785">
        <ele>1598</ele>
        <time>2020-07-12T18:40:36+02:00</time>
      </trkpt>
      <trkpt lat="44.76728" lon="5.47784">
        <ele>1597</ele>
        <time>2020-07-12T18:40:41+02:00</time>
      </trkpt>
      <trkpt lat="44.76739" lon="5.4778">
        <ele>1597</ele>
        <time>2020-07-12T18:40:46+02:00</time>
      </trkpt>
      <trkpt lat="44.76743" lon="5.47778">
        <ele>1597</ele>
        <time>2020-07-12T18:40:51+02:00</time>
      </trkpt>
      <trkpt lat="44.76752" lon="5.47778">
        <ele>1596</ele>
        <time>2020-07-12T18:40:56+02:00</time>
      </trkpt>
      <trkpt lat="44.76764" lon="5.47781">
        <ele>1598</ele>
        <time>2020-07-12T18:41:01+02:00</time>
      </trkpt>
      <trkpt lat="44.7677" lon="5.47782">
        <ele>1598</ele>
        <time>2020-07-12T18:41:06+02:00</time>
      </trkpt>
      <trkpt lat="44.76777" lon="5.47787">
        <ele>1595</ele>
        <time>2020-07-12T18:41:11+02:00</time>
      </trkpt>
      <trkpt lat="44.76789" lon="5.47793">
        <ele>1596</ele>
        <time>2020-07-12T18:41:16+02:00</time>
      </trkpt>
      <trkpt lat="44.76809" lon="5.47804">
        <ele>1595</ele>
        <time>2020-07-12T18:41:21+02:00</time>
      </trkpt>
      <trkpt lat="44.76823" lon="5.47813">
        <ele>1593</ele>
        <time>2020-07-12T18:41:26+02:00</time>
      </trkpt>
      <trkpt lat="44.76827" lon="5.47814">
        <ele>1593</ele>
        <time>2020-07-12T18:41:31+02:00</time>
      </trkpt>
      <trkpt lat="44.76832" lon="5.47814">
        <ele>1595</ele>
        <time>2020-07-12T18:41:36+02:00</time>
      </trkpt>
      <trkpt lat="44.76839" lon="5.4781">
        <ele>1599</ele>
        <time>2020-07-12T18:41:41+02:00</time>
      </trkpt>
      <trkpt lat="44.76849" lon="5.47804">
        <ele>1605</ele>
        <time>2020-07-12T18:41:46+02:00</time>
      </trkpt>
      <trkpt lat="44.76859" lon="5.47785">
        <ele>1618</ele>
        <time>2020-07-12T18:41:51+02:00</time>
      </trkpt>
      <trkpt lat="44.76854" lon="5.47776">
        <ele>1624</ele>
        <time>2020-07-12T18:41:56+02:00</time>
      </trkpt>
      <trkpt lat="44.7685" lon="5.47768">
        <ele>1628</ele>
        <time>2020-07-12T18:42:01+02:00</time>
      </trkpt>
      <trkpt lat="44.76844" lon="5.47762">
        <ele>1632</ele>
        <time>2020-07-12T18:42:06+02:00</time>
      </trkpt>
      <trkpt lat="44.76838" lon="5.47754">
        <ele>1636</ele>
        <time>2020-07-12T18:42:11+02:00</time>
      </trkpt>
      <trkpt lat="44.76841" lon="5.47754">
        <ele>1636</ele>
        <time>2020-07-12T18:42:16+02:00</time>
      </trkpt>
      <trkpt lat="44.7685" lon="5.47758">
        <ele>1634</ele>
        <time>2020-07-12T18:42:21+02:00</time>
      </trkpt>
      <trkpt lat="44.76855" lon="5.47762">
        <ele>1632</ele>
        <time>2020-07-12T18:42:26+02:00</time>
      </trkpt>
      <trkpt lat="44.76867" lon="5.47746">
        <ele>1639</ele>
        <time>2020-07-12T18:42:31+02:00</time>
      </trkpt>
      <trkpt lat="44.7687" lon="5.4774">
        <ele>1641</ele>
        <time>2020-07-12T18:42:36+02:00</time>
      </trkpt>
      <trkpt lat="44.76874" lon="5.47736">
        <ele>1641</ele>
        <time>2020-07-12T18:42:41+02:00</time>
      </trkpt>
      <trkpt lat="44.76878" lon="5.47734">
        <ele>1642</ele>
        <time>2020-07-12T18:42:46+02:00</time>
      </trkpt>
      <trkpt lat="44.76886" lon="5.47727">
        <ele>1643</ele>
        <time>2020-07-12T18:42:51+02:00</time>
      </trkpt>
      <trkpt lat="44.76889" lon="5.47722">
        <ele>1644</ele>
        <time>2020-07-12T18:42:56+02:00</time>
      </trkpt>
      <trkpt lat="44.76895" lon="5.47717">
        <ele>1644</ele>
        <time>2020-07-12T18:43:01+02:00</time>
      </trkpt>
      <trkpt lat="44.76899" lon="5.47716">
        <ele>1644</ele>
        <time>2020-07-12T18:43:06+02:00</time>
      </trkpt>
      <trkpt lat="44.76903" lon="5.47712">
        <ele>1644</ele>
        <time>2020-07-12T18:43:11+02:00</time>
      </trkpt>
      <trkpt lat="44.76908" lon="5.47706">
        <ele>1645</ele>
        <time>2020-07-12T18:43:16+02:00</time>
      </trkpt>
      <trkpt lat="44.76918" lon="5.477">
        <ele>1645</ele>
        <time>2020-07-12T18:43:21+02:00</time>
      </trkpt>
      <trkpt lat="44.76923" lon="5.47698">
        <ele>1645</ele>
        <time>2020-07-12T18:43:26+02:00</time>
      </trkpt>
      <trkpt lat="44.76931" lon="5.47698">
        <ele>1644</ele>
        <time>2020-07-12T18:43:31+02:00</time>
      </trkpt>
      <trkpt lat="44.7694" lon="5.47698">
        <ele>1643</ele>
        <time>2020-07-12T18:43:36+02:00</time>
      </trkpt>
      <trkpt lat="44.76951" lon="5.47698">
        <ele>1642</ele>
        <time>2020-07-12T18:43:41+02:00</time>
      </trkpt>
      <trkpt lat="44.76956" lon="5.47699">
        <ele>1642</ele>
        <time>2020-07-12T18:43:46+02:00</time>
      </trkpt>
      <trkpt lat="44.7696" lon="5.47713">
        <ele>1640</ele>
        <time>2020-07-12T18:43:51+02:00</time>
      </trkpt>
      <trkpt lat="44.76982" lon="5.47738">
        <ele>1635</ele>
        <time>2020-07-12T18:43:56+02:00</time>
      </trkpt>
      <trkpt lat="44.76987" lon="5.47744">
        <ele>1634</ele>
        <time>2020-07-12T18:44:01+02:00</time>
      </trkpt>
      <trkpt lat="44.76997" lon="5.47755">
        <ele>1631</ele>
        <time>2020-07-12T18:44:06+02:00</time>
      </trkpt>
      <trkpt lat="44.77002" lon="5.47757">
        <ele>1629</ele>
        <time>2020-07-12T18:44:11+02:00</time>
      </trkpt>
      <trkpt lat="44.77015" lon="5.47758">
        <ele>1627</ele>
        <time>2020-07-12T18:44:16+02:00</time>
      </trkpt>
      <trkpt lat="44.77017" lon="5.47751">
        <ele>1629</ele>
        <time>2020-07-12T18:44:21+02:00</time>
      </trkpt>
      <trkpt lat="44.77022" lon="5.47743">
        <ele>1630</ele>
        <time>2020-07-12T18:44:26+02:00</time>
      </trkpt>
      <trkpt lat="44.77027" lon="5.47732">
        <ele>1633</ele>
        <time>2020-07-12T18:44:31+02:00</time>
      </trkpt>
      <trkpt lat="44.77034" lon="5.47725">
        <ele>1634</ele>
        <time>2020-07-12T18:44:36+02:00</time>
      </trkpt>
      <trkpt lat="44.77038" lon="5.47721">
        <ele>1636</ele>
        <time>2020-07-12T18:44:41+02:00</time>
      </trkpt>
      <trkpt lat="44.77039" lon="5.47732">
        <ele>1633</ele>
        <time>2020-07-12T18:44:46+02:00</time>
      </trkpt>
      <trkpt lat="44.77058" lon="5.47732">
        <ele>1632</ele>
        <time>2020-07-12T18:44:51+02:00</time>
      </trkpt>
      <trkpt lat="44.77059" lon="5.47734">
        <ele>1632</ele>
        <time>2020-07-12T18:44:56+02:00</time>
      </trkpt>
      <trkpt lat="44.77068" lon="5.4774">
        <ele>1630</ele>
        <time>2020-07-12T18:45:01+02:00</time>
      </trkpt>
      <trkpt lat="44.77078" lon="5.47753">
        <ele>1626</ele>
        <time>2020-07-12T18:45:06+02:00</time>
      </trkpt>
      <trkpt lat="44.77085" lon="5.47758">
        <ele>1623</ele>
        <time>2020-07-12T18:45:11+02:00</time>
      </trkpt>
      <trkpt lat="44.7709" lon="5.4776">
        <ele>1623</ele>
        <time>2020-07-12T18:45:16+02:00</time>
      </trkpt>
      <trkpt lat="44.77098" lon="5.47764">
        <ele>1621</ele>
        <time>2020-07-12T18:45:21+02:00</time>
      </trkpt>
      <trkpt lat="44.77107" lon="5.47764">
        <ele>1621</ele>
        <time>2020-07-12T18:45:26+02:00</time>
      </trkpt>
      <trkpt lat="44.77117" lon="5.47767">
        <ele>1620</ele>
        <time>2020-07-12T18:45:31+02:00</time>
      </trkpt>
      <trkpt lat="44.77124" lon="5.47772">
        <ele>1620</ele>
        <time>2020-07-12T18:45:36+02:00</time>
      </trkpt>
      <trkpt lat="44.77132" lon="5.47773">
        <ele>1620</ele>
        <time>2020-07-12T18:45:41+02:00</time>
      </trkpt>
      <trkpt lat="44.77138" lon="5.4778">
        <ele>1619</ele>
        <time>2020-07-12T18:45:46+02:00</time>
      </trkpt>
      <trkpt lat="44.77147" lon="5.47786">
        <ele>1619</ele>
        <time>2020-07-12T18:45:51+02:00</time>
      </trkpt>
      <trkpt lat="44.77153" lon="5.4779">
        <ele>1618</ele>
        <time>2020-07-12T18:45:56+02:00</time>
      </trkpt>
      <trkpt lat="44.77158" lon="5.47792">
        <ele>1619</ele>
        <time>2020-07-12T18:46:01+02:00</time>
      </trkpt>
      <trkpt lat="44.77164" lon="5.47793">
        <ele>1620</ele>
        <time>2020-07-12T18:46:06+02:00</time>
      </trkpt>
      <trkpt lat="44.77171" lon="5.47798">
        <ele>1619</ele>
        <time>2020-07-12T18:46:11+02:00</time>
      </trkpt>
      <trkpt lat="44.77177" lon="5.47801">
        <ele>1619</ele>
        <time>2020-07-12T18:46:16+02:00</time>
      </trkpt>
      <trkpt lat="44.77188" lon="5.4781">
        <ele>1617</ele>
        <time>2020-07-12T18:46:21+02:00</time>
      </trkpt>
      <trkpt lat="44.77194" lon="5.47819">
        <ele>1615</ele>
        <time>2020-07-12T18:46:26+02:00</time>
      </trkpt>
      <trkpt lat="44.77208" lon="5.47819">
        <ele>1619</ele>
        <time>2020-07-12T18:46:31+02:00</time>
      </trkpt>
      <trkpt lat="44.77218" lon="5.47834">
        <ele>1616</ele>
        <time>2020-07-12T18:46:36+02:00</time>
      </trkpt>
      <trkpt lat="44.77225" lon="5.47846">
        <ele>1613</ele>
        <time>2020-07-12T18:46:41+02:00</time>
      </trkpt>
      <trkpt lat="44.77232" lon="5.47864">
        <ele>1608</ele>
        <time>2020-07-12T18:46:46+02:00</time>
      </trkpt>
      <trkpt lat="44.77236" lon="5.47873">
        <ele>1607</ele>
        <time>2020-07-12T18:46:51+02:00</time>
      </trkpt>
      <trkpt lat="44.7724" lon="5.47886">
        <ele>1605</ele>
        <time>2020-07-12T18:46:56+02:00</time>
      </trkpt>
      <trkpt lat="44.77241" lon="5.47895">
        <ele>1604</ele>
        <time>2020-07-12T18:47:01+02:00</time>
      </trkpt>
      <trkpt lat="44.77238" lon="5.47901">
        <ele>1602</ele>
        <time>2020-07-12T18:47:06+02:00</time>
      </trkpt>
      <trkpt lat="44.77224" lon="5.4791">
        <ele>1597</ele>
        <time>2020-07-12T18:47:11+02:00</time>
      </trkpt>
      <trkpt lat="44.77224" lon="5.47913">
        <ele>1596</ele>
        <time>2020-07-12T18:47:16+02:00</time>
      </trkpt>
      <trkpt lat="44.77224" lon="5.47922">
        <ele>1593</ele>
        <time>2020-07-12T18:47:21+02:00</time>
      </trkpt>
    </trkseg>
  </trk>
</gpx>